Flight Track Log - Related Links

Times and Time Zones

All times are in EDT time to prevent confusion due to time zone crossing. See the UAL139 flight status page for this flight to view local times or setup timezone preferences in your user account.

Time Position Orientation Groundspeed Altitude Reporting Facility
EDT Latitude Longitude Course Direction KTS MPH feet Rate Location/Type
Sat 02:43:40 PM 39.8700 -104.6960 360° North 164 189 5,200  Level FlightAware ADS-B
Sat 02:44:00 PM 39.8870 -104.6960 360° North 208 239 5,400 1,733 Climbing FlightAware ADS-B
Sat 02:44:25 PM 39.9131 -104.6958 360° North 212 244 6,500 1,733 Climbing FlightAware ADS-B (KEIK)
Sat 02:44:45 PM 39.9193 -104.6983 342° North 218 251 6,700 1,358 Climbing FlightAware ADS-B (KEIK)
Sat 02:45:18 PM 39.9340 -104.7590 288° West 255 293 7,700 1,789 Climbing FlightAware ADS-B
Sat 02:45:42 PM 39.9360 -104.7970 274° West 275 316 8,400 2,045 Climbing FlightAware ADS-B
Sat 02:46:02 PM 39.9380 -104.8300 275° West 280 322 9,200 2,333 Climbing FlightAware ADS-B
Sat 02:46:36 PM 39.9420 -104.8890 275° West 298 343 10,500 2,000 Climbing FlightAware ADS-B
Sat 02:46:47 PM 39.9428 -104.9081 273° West 315 362 10,700 1,395 Climbing FlightAware ADS-B (KEIK)
Sat 02:47:19 PM 39.9465 -104.9712 274° West 342 394 11,500 1,810 Climbing FlightAware ADS-B (KEIK)
Sat 02:47:50 PM 39.9501 -105.0352 274° West 355 409 12,600 2,852 Climbing FlightAware ADS-B (KEIK)
Sat 02:48:20 PM 39.9539 -105.1001 274° West 343 395 14,400 2,557 Climbing FlightAware ADS-B (KEIK)
Sat 02:48:51 PM 39.9570 -105.1535 274° West 362 417 15,200 1,200 Climbing FlightAware ADS-B (KEIK)
Sat 02:49:25 PM 39.9617 -105.2361 274° West 390 449 15,700 1,286 Climbing FlightAware ADS-B (KANK)
Sat 02:50:01 PM 39.9667 -105.3272 274° West 402 463 16,700 1,816 Climbing FlightAware ADS-B (KEIK)
Sat 02:50:41 PM 39.9718 -105.4213 274° West 410 472 18,000 1,650 Climbing FlightAware ADS-B (KEIK)
Sat 02:51:21 PM 39.9769 -105.5253 274° West 426 490 18,900 2,400 Climbing FlightAware ADS-B (KEIK)
Sat 02:51:51 PM 39.9769 -105.6027 270° West 412 474 20,800 3,100 Climbing FlightAware ADS-B (KEIK)
Sat 02:52:21 PM 39.9746 -105.6760 268° West 411 473 22,000 1,700 Climbing FlightAware ADS-B (KANK)
Sat 02:52:51 PM 39.9729 -105.7493 268° West 423 487 22,500 1,038 Climbing FlightAware ADS-B (KEIK)
Sat 02:53:13 PM 39.9723 -105.7878 269° West 435 501 22,900 1,053 Climbing FlightAware ADS-B (KEIK)
Sat 02:53:48 PM 39.9735 -105.8940 271° West 446 513 23,500 1,292 Climbing FlightAware ADS-B (KANK)
Sat 02:54:18 PM 39.9784 -105.9822 274° West 450 518 24,300 1,500 Climbing FlightAware ADS-B (KANK)
Sat 02:54:52 PM 39.9851 -106.0627 276° West 454 522 25,100 1,313 Climbing FlightAware ADS-B (KANK)
Sat 02:55:22 PM 39.9971 -106.1515 280° West 459 528 25,700 1,238 Climbing FlightAware ADS-B (KEIK)
Sat 02:55:55 PM 40.0107 -106.2436 281° West 463 533 26,400 1,500 Climbing FlightAware ADS-B (KANK)
Sat 02:56:26 PM 40.0228 -106.3277 281° West 467 537 27,300 1,475 Climbing FlightAware ADS-B (KEIK)
Sat 02:56:56 PM 40.0328 -106.3962 281° West 466 536 27,900 1,200 Climbing FlightAware ADS-B (KANK)
Sat 02:57:26 PM 40.0448 -106.4817 280° West 468 539 28,500 1,143 Climbing FlightAware ADS-B (KANK)
Sat 02:57:59 PM 40.0564 -106.5766 279° West 472 543 29,100 1,333 Climbing FlightAware ADS-B (KANK)
Sat 02:58:29 PM 40.0663 -106.6583 279° West 468 539 29,900 1,400 Climbing FlightAware ADS-B (KANK)
Sat 02:58:59 PM 40.0774 -106.7497 279° West 470 541 30,500 1,200 Climbing FlightAware ADS-B (KANK)
Sat 02:59:29 PM 40.0879 -106.8345 279° West 468 539 31,100 1,313 Climbing FlightAware ADS-B (KANK)
Sat 03:00:03 PM 40.0998 -106.9305 279° West 465 535 31,900 1,313 Climbing FlightAware ADS-B (KANK)
Sat 03:00:33 PM 40.1103 -107.0155 279° West 463 533 32,500 1,180 Climbing FlightAware ADS-B (KANK)
Sat 03:01:04 PM 40.1190 -107.0875 279° West 461 531 33,100 1,105 Climbing FlightAware ADS-B (KANK)
Sat 03:01:49 PM 40.1353 -107.2233 279° West 460 529 33,900 720 Climbing FlightAware ADS-B
Sat 03:02:19 PM 40.1451 -107.3048 279° West 465 535 34,000 82 Climbing FlightAware ADS-B
Sat 03:03:02 PM 40.1586 -107.4190 279° West 462 532 34,000  Level FlightAware ADS-B
Sat 03:03:32 PM 40.1686 -107.5042 279° West 460 529 34,000  Level FlightAware ADS-B
Sat 03:04:07 PM 40.1800 -107.6020 279° West 463 533 34,000  Level FlightAware ADS-B
Sat 03:04:16 PM 40.1822 -107.6211 278° West 464 534 34,000  Level FlightAware ADS-B
Sat 03:04:46 PM 40.1927 -107.7120 279° West 464 534 34,000  Level FlightAware ADS-B
Sat 03:05:17 PM 40.2025 -107.7979 279° West 464 534 34,000  Level FlightAware ADS-B
Sat 03:05:48 PM 40.2124 -107.8838 279° West 464 534 34,000  Level FlightAware ADS-B
Sat 03:06:28 PM 40.2249 -107.9940 278° West 464 534 34,000  Level FlightAware ADS-B
Sat 03:07:02 PM 40.2350 -108.0840 278° West 464 534 34,000  Level FlightAware ADS-B
Sat 03:07:14 PM 40.2389 -108.1188 278° West 464 534 34,000  Level FlightAware ADS-B (KGUC)
Sat 03:07:51 PM 40.2506 -108.2239 278° West 464 534 34,000  Level FlightAware ADS-B
Sat 03:08:21 PM 40.2597 -108.3068 278° West 463 533 34,000  Level FlightAware ADS-B
Sat 03:08:51 PM 40.2686 -108.3882 278° West 464 534 34,000  Level FlightAware ADS-B (KGUC)
Sat 03:09:26 PM 40.2793 -108.4872 278° West 466 536 34,000  Level FlightAware ADS-B
Sat 03:09:56 PM 40.2879 -108.5666 278° West 464 534 34,000  Level FlightAware ADS-B
Sat 03:10:26 PM 40.2968 -108.6495 278° West 465 535 34,000  Level FlightAware ADS-B
Sat 03:10:57 PM 40.3065 -108.7407 278° West 464 534 34,000  Level FlightAware ADS-B
Sat 03:11:27 PM 40.3151 -108.8218 278° West 465 535 34,000  Level FlightAware ADS-B
Sat 03:11:57 PM 40.3241 -108.9075 278° West 464 534 34,000  Level FlightAware ADS-B
Sat 03:12:27 PM 40.3323 -108.9864 278° West 464 534 34,000  Level FlightAware ADS-B
Sat 03:12:57 PM 40.3388 -109.0491 278° West 461 531 34,000  Level FlightAware ADS-B
Sat 03:13:27 PM 40.3499 -109.1572 278° West 459 528 34,000  Level FlightAware ADS-B
Sat 03:14:04 PM 40.3597 -109.2536 278° West 462 532 34,000  Level FlightAware ADS-B
Sat 03:14:38 PM 40.3700 -109.3520 278° West 464 534 34,000  Level FlightAware ADS-B
Sat 03:15:15 PM 40.3800 -109.4570 277° West 465 535 34,000  Level FlightAware ADS-B
Sat 03:15:46 PM 40.3890 -109.5420 278° West 462 532 34,000  Level FlightAware ADS-B
Sat 03:16:21 PM 40.3980 -109.6400 277° West 461 531 34,000  Level FlightAware ADS-B
Sat 03:16:34 PM 40.4012 -109.6716 278° West 463 533 34,000  Level FlightAware ADS-B
Sat 03:17:19 PM 40.4139 -109.8016 277° West 463 533 34,000  Level FlightAware ADS-B
Sat 03:18:09 PM 40.4269 -109.9372 277° West 466 536 34,000  Level FlightAware ADS-B
Sat 03:18:39 PM 40.4353 -110.0258 277° West 467 537 34,000  Level FlightAware ADS-B
Sat 03:19:09 PM 40.4421 -110.0970 277° West 467 537 34,000 98 Level FlightAware ADS-B
Sat 03:19:40 PM 40.4509 -110.1918 277° West 467 537 34,100 667 Climbing FlightAware ADS-B
Sat 03:20:21 PM 40.4594 -110.2846 277° West 465 535 34,800 1,119 Climbing FlightAware ADS-B
Sat 03:20:39 PM 40.4665 -110.3620 277° West 463 533 35,200 1,263 Climbing FlightAware ADS-B
Sat 03:20:59 PM 40.4714 -110.4149 277° West 459 528 35,600 1,091 Climbing FlightAware ADS-B
Sat 03:21:12 PM 40.4749 -110.4540 277° West 458 527 35,800 706 Climbing FlightAware ADS-B
Sat 03:21:33 PM 40.4792 -110.5022 277° West 461 531 36,000 375 Climbing FlightAware ADS-B
Sat 03:21:44 PM 40.4827 -110.5410 277° West 462 532 36,000  Level FlightAware ADS-B
Sat 03:22:08 PM 40.4881 -110.5994 277° West 461 531 36,000  Level FlightAware ADS-B
Sat 03:22:14 PM 40.4904 -110.6250 277° West 461 531 36,000  Level FlightAware ADS-B
Sat 03:22:39 PM 40.4964 -110.6932 277° West 461 531 36,000  Level FlightAware ADS-B
Sat 03:22:44 PM 40.4978 -110.7080 277° West 461 531 36,000  Level FlightAware ADS-B
Sat 03:23:15 PM 40.5052 -110.7930 277° West 458 527 36,000  Level FlightAware ADS-B
Sat 03:23:18 PM 40.5060 -110.8021 277° West 458 527 36,000  Level FlightAware ADS-B
Sat 03:23:45 PM 40.5125 -110.8760 277° West 458 527 36,000  Level FlightAware ADS-B
Sat 03:23:49 PM 40.5135 -110.8876 276° West 458 527 36,000  Level FlightAware ADS-B
Sat 03:24:19 PM 40.5206 -110.9710 276° West 460 529 36,000  Level FlightAware ADS-B
Sat 03:24:51 PM 40.5268 -111.0428 276° West 462 532 36,000  Level FlightAware ADS-B
Sat 03:24:52 PM 40.5285 -111.0630 276° West 462 532 36,000  Level FlightAware ADS-B
Sat 03:25:21 PM 40.5337 -111.1247 276° West 463 533 36,000  Level FlightAware ADS-B
Sat 03:25:23 PM 40.5356 -111.1480 276° West 463 533 36,000  Level FlightAware ADS-B
Sat 03:25:53 PM 40.5428 -111.2320 276° West 463 533 36,000  Level FlightAware ADS-B
Sat 03:25:55 PM 40.5432 -111.2368 276° West 463 533 36,000  Level FlightAware ADS-B
Sat 03:26:23 PM 40.5497 -111.3150 276° West 462 532 36,000  Level FlightAware ADS-B
Sat 03:26:34 PM 40.5521 -111.3443 276° West 461 531 36,000  Level FlightAware ADS-B
Sat 03:26:53 PM 40.5566 -111.3990 276° West 461 531 36,000  Level FlightAware ADS-B
Sat 03:27:10 PM 40.5602 -111.4426 276° West 461 531 36,000  Level FlightAware ADS-B
Sat 03:27:23 PM 40.5635 -111.4840 276° West 461 531 36,000  Level FlightAware ADS-B
Sat 03:27:42 PM 40.5659 -111.5131 276° West 461 531 36,000  Level FlightAware ADS-B
Sat 03:27:54 PM 40.5704 -111.5680 276° West 461 531 36,000  Level FlightAware ADS-B
Sat 03:28:20 PM 40.5752 -111.6274 276° West 459 528 36,000  Level FlightAware ADS-B
Sat 03:28:24 PM 40.5772 -111.6520 276° West 458 527 36,000  Level FlightAware ADS-B
Sat 03:28:54 PM 40.5838 -111.7360 276° West 462 532 36,000  Level FlightAware ADS-B
Sat 03:28:59 PM 40.5828 -111.7239 96° East 463 533 36,000  Level FlightAware ADS-B
Sat 03:29:25 PM 40.5905 -111.8210 276° West 464 534 36,000  Level FlightAware ADS-B
Sat 03:29:49 PM 40.5954 -111.8826 276° West 463 533 36,000  Level FlightAware ADS-B
Sat 03:29:55 PM 40.5972 -111.9060 276° West 464 534 36,000  Level FlightAware ADS-B
Sat 03:30:26 PM 40.6037 -111.9910 276° West 464 534 36,000  Level FlightAware ADS-B
Sat 03:30:28 PM 40.6040 -111.9941 277° West 464 534 36,000  Level FlightAware ADS-B
Sat 03:30:57 PM 40.6105 -112.0800 276° West 463 533 36,000  Level FlightAware ADS-B
Sat 03:31:09 PM 40.6128 -112.1089 276° West 462 532 36,000  Level FlightAware ADS-B
Sat 03:31:27 PM 40.6169 -112.1630 276° West 461 531 36,000  Level FlightAware ADS-B
Sat 03:31:57 PM 40.6220 -112.2326 276° West 462 532 36,000  Level FlightAware ADS-B
Sat 03:32:08 PM 40.6254 -112.2780 276° West 462 532 36,000  Level FlightAware ADS-B
Sat 03:32:34 PM 40.6307 -112.3478 276° West 463 533 36,000  Level FlightAware ADS-B
Sat 03:32:42 PM 40.6324 -112.3710 276° West 463 533 36,000  Level FlightAware ADS-B
Sat 03:33:15 PM 40.6393 -112.4650 276° West 463 533 36,000  Level FlightAware ADS-B
Sat 03:33:44 PM 40.6447 -112.5403 275° West 463 533 36,000  Level FlightAware ADS-B
Sat 03:33:46 PM 40.6455 -112.5510 275° West 463 533 36,000  Level FlightAware ADS-B
Sat 03:34:17 PM 40.6519 -112.6400 275° West 465 535 36,000  Level FlightAware ADS-B
Sat 03:34:37 PM 40.6550 -112.6841 275° West 465 535 36,000  Level FlightAware ADS-B
Sat 03:34:48 PM 40.6579 -112.7250 275° West 466 536 36,000  Level FlightAware ADS-B
Sat 03:35:19 PM 40.6641 -112.8140 275° West 467 537 36,000  Level FlightAware ADS-B
Sat 03:35:41 PM 40.6681 -112.8714 275° West 468 539 36,000  Level FlightAware ADS-B
Sat 03:35:50 PM 40.6702 -112.9000 275° West 468 539 36,000  Level FlightAware ADS-B
Sat 03:36:20 PM 40.6761 -112.9860 275° West 468 539 36,000  Level FlightAware ADS-B
Sat 03:36:24 PM 40.6769 -112.9976 275° West 468 539 36,000  Level FlightAware ADS-B
Sat 03:36:53 PM 40.6825 -113.0800 275° West 469 540 36,000  Level FlightAware ADS-B
Sat 03:36:55 PM 40.6818 -113.0708 96° East 469 540 36,000  Level FlightAware ADS-B
Sat 03:37:24 PM 40.6883 -113.1670 275° West 469 540 36,000  Level FlightAware ADS-B
Sat 03:37:45 PM 40.6911 -113.2087 275° West 469 540 36,000  Level FlightAware ADS-B
Sat 03:37:55 PM 40.6941 -113.2540 275° West 469 540 36,000  Level FlightAware ADS-B
Sat 03:38:25 PM 40.6996 -113.3400 275° West 469 540 36,000  Level FlightAware ADS-B
Sat 03:39:03 PM 40.7067 -113.4490 275° West 468 539 36,000  Level FlightAware ADS-B
Sat 03:39:05 PM 40.7071 -113.4544 275° West 469 540 36,000  Level FlightAware ADS-B
Sat 03:39:35 PM 40.7124 -113.5380 275° West 471 542 36,000  Level FlightAware ADS-B
Sat 03:39:48 PM 40.7148 -113.5751 275° West 471 542 36,000  Level FlightAware ADS-B
Sat 03:40:05 PM 40.7179 -113.6250 275° West 472 543 36,000  Level FlightAware ADS-B
Sat 03:40:30 PM 40.7224 -113.6968 275° West 472 543 36,000  Level FlightAware ADS-B
Sat 03:40:33 PM 40.7227 -113.7030 274° West 472 543 36,000  Level FlightAware ADS-B
Sat 03:41:03 PM 40.7245 -113.7900 272° West 474 545 36,000  Level FlightAware ADS-B
Sat 03:41:12 PM 40.7245 -113.7939 270° West 475 547 36,000  Level FlightAware ADS-B
Sat 03:41:34 PM 40.7216 -113.8790 267° West 477 549 36,000  Level FlightAware ADS-B
Sat 03:42:04 PM 40.7184 -113.9660 267° West 477 549 36,000  Level FlightAware ADS-B
Sat 03:42:14 PM 40.7177 -113.9854 267° West 477 549 36,000  Level FlightAware ADS-B
Sat 03:42:34 PM 40.7151 -114.0530 267° West 478 550 36,000  Level FlightAware ADS-B
Sat 03:43:04 PM 40.7117 -114.1420 267° West 479 551 36,000  Level FlightAware ADS-B
Sat 03:43:08 PM 40.7113 -114.1525 267° West 479 551 36,000  Level FlightAware ADS-B
Sat 03:43:36 PM 40.7081 -114.2330 267° West 478 550 36,000  Level FlightAware ADS-B
Sat 03:43:59 PM 40.7056 -114.2952 267° West 480 552 36,000  Level FlightAware ADS-B
Sat 03:44:06 PM 40.7046 -114.3210 267° West 480 552 36,000  Level FlightAware ADS-B
Sat 03:44:37 PM 40.7009 -114.4110 267° West 479 551 36,000  Level FlightAware ADS-B
Sat 03:44:40 PM 40.7008 -114.4122 264° West 479 551 36,000  Level FlightAware ADS-B
Sat 03:45:07 PM 40.6972 -114.4980 267° West 480 552 36,000  Level FlightAware ADS-B
Sat 03:45:12 PM 40.6969 -114.5053 267° West 481 554 36,000  Level FlightAware ADS-B
Sat 03:45:40 PM 40.6931 -114.5960 267° West 481 554 36,000  Level FlightAware ADS-B
Sat 03:46:19 PM 40.6885 -114.7000 267° West 479 551 36,000  Level FlightAware ADS-B
Sat 03:46:25 PM 40.6874 -114.7260 267° West 480 552 36,000  Level FlightAware ADS-B
Sat 03:46:49 PM 40.6845 -114.7894 267° West 479 551 36,000  Level FlightAware ADS-B
Sat 03:46:56 PM 40.6834 -114.8150 267° West 478 550 36,000  Level FlightAware ADS-B
Sat 03:47:20 PM 40.6804 -114.8816 267° West 478 550 36,000  Level FlightAware ADS-B
Sat 03:47:30 PM 40.6789 -114.9140 267° West 478 550 36,000  Level FlightAware ADS-B
Sat 03:48:01 PM 40.6747 -115.0040 267° West 476 548 36,000  Level FlightAware ADS-B
Sat 03:48:18 PM 40.6726 -115.0480 266° West 476 548 36,000  Level FlightAware ADS-B
Sat 03:48:32 PM 40.6705 -115.0920 266° West 476 548 36,000  Level FlightAware ADS-B
Sat 03:49:02 PM 40.6664 -115.1800 267° West 477 549 36,000  Level FlightAware ADS-B
Sat 03:49:32 PM 40.6621 -115.2680 266° West 477 549 36,000  Level FlightAware ADS-B
Sat 03:50:03 PM 40.6580 -115.3530 266° West 477 549 36,000  Level FlightAware ADS-B
Sat 03:51:03 PM 40.6490 -115.5260 266° West 477 549 36,000  Level FlightAware ADS-B
Sat 03:51:42 PM 40.6431 -115.6420 266° West 477 549 36,000  Level FlightAware ADS-B
Sat 03:52:12 PM 40.6386 -115.7290 266° West 477 549 36,000  Level FlightAware ADS-B
Sat 03:52:43 PM 40.6338 -115.8190 266° West 478 550 36,000  Level FlightAware ADS-B
Sat 03:53:19 PM 40.6282 -115.9220 266° West 478 550 36,000  Level FlightAware ADS-B
Sat 03:53:49 PM 40.6233 -116.0100 266° West 478 550 36,000  Level FlightAware ADS-B
Sat 03:54:22 PM 40.6180 -116.1060 266° West 479 551 36,000  Level FlightAware ADS-B
Sat 03:54:52 PM 40.6180 -116.1050 90° East 477 549 36,000  Level FlightAware ADS-B
Sat 03:55:28 PM 40.6140 -116.1940 267° West 477 549 36,000  Level FlightAware ADS-B
Sat 03:56:04 PM 40.6090 -116.2830 266° West 477 549 36,000  Level FlightAware ADS-B
Sat 03:56:40 PM 40.6040 -116.3710 266° West 477 549 36,000  Level FlightAware ADS-B
Sat 03:57:17 PM 40.5990 -116.4630 266° West 477 549 36,000  Level FlightAware ADS-B
Sat 03:57:52 PM 40.5950 -116.5490 267° West 477 549 36,000  Level FlightAware ADS-B
Sat 03:58:28 PM 40.5900 -116.6370 266° West 477 549 36,000  Level FlightAware ADS-B
Sat 03:59:06 PM 40.5850 -116.7310 266° West 477 549 36,000  Level FlightAware ADS-B
Sat 03:59:42 PM 40.5800 -116.8200 266° West 477 549 36,000  Level FlightAware ADS-B
Sat 04:00:18 PM 40.5760 -116.9080 267° West 477 549 36,000  Level FlightAware ADS-B
Sat 04:00:54 PM 40.5710 -116.9970 266° West 477 549 36,000  Level FlightAware ADS-B
Sat 04:01:28 PM 40.5670 -117.0810 266° West 477 549 36,000  Level FlightAware ADS-B
Sat 04:03:09 PM 40.5202 -117.6405 264° West 485 558 36,000  Level FlightAware ADS-B
Sat 04:03:39 PM 40.5145 -117.7196 265° West 486 559 36,000  Level FlightAware ADS-B
Sat 04:04:14 PM 40.5066 -117.8287 265° West 486 559 36,000  Level FlightAware ADS-B
Sat 04:04:44 PM 40.5003 -117.9145 264° West 487 560 36,000  Level FlightAware ADS-B
Sat 04:05:23 PM 40.4913 -118.0355 264° West 487 560 36,000  Level FlightAware ADS-B
Sat 04:05:54 PM 40.4850 -118.1201 264° West 487 560 36,000  Level FlightAware ADS-B
Sat 04:06:27 PM 40.4780 -118.2080 264° West 488 562 36,000  Level FlightAware ADS-B
Sat 04:06:33 PM 40.4762 -118.2354 265° West 489 563 36,000  Level FlightAware ADS-B
Sat 04:07:05 PM 40.4686 -118.3349 264° West 489 563 36,000  Level FlightAware ADS-B
Sat 04:07:35 PM 40.4621 -118.4179 264° West 489 563 36,000  Level FlightAware ADS-B
Sat 04:08:08 PM 40.4541 -118.5192 264° West 489 563 36,000  Level FlightAware ADS-B
Sat 04:08:48 PM 40.4448 -118.6359 264° West 490 564 36,000  Level FlightAware ADS-B
Sat 04:09:19 PM 40.4373 -118.7296 264° West 490 564 36,000  Level FlightAware ADS-B
Sat 04:09:49 PM 40.4301 -118.8187 264° West 491 565 36,000  Level FlightAware ADS-B
Sat 04:10:35 PM 40.4189 -118.9545 264° West 491 565 36,000  Level FlightAware ADS-B
Sat 04:11:06 PM 40.4110 -119.0440 263° West 491 565 36,000  Level FlightAware ADS-B
Sat 04:11:22 PM 40.4073 -119.0929 264° West 492 566 36,000  Level FlightAware ADS-B
Sat 04:11:58 PM 40.3984 -119.1978 264° West 493 567 36,000  Level FlightAware ADS-B
Sat 04:12:28 PM 40.3910 -119.2860 264° West 494 568 36,000  Level FlightAware ADS-B
Sat 04:12:37 PM 40.3883 -119.3158 263° West 494 568 36,000  Level FlightAware ADS-B
Sat 04:13:08 PM 40.3806 -119.4049 264° West 494 568 36,000  Level FlightAware ADS-B
Sat 04:13:57 PM 40.3677 -119.5525 263° West 496 571 36,000  Level FlightAware ADS-B
Sat 04:14:30 PM 40.3597 -119.6432 263° West 496 571 36,000  Level FlightAware ADS-B
Sat 04:15:10 PM 40.3497 -119.7553 263° West 497 572 36,000  Level FlightAware ADS-B
Sat 04:15:40 PM 40.3417 -119.8442 263° West 497 572 36,000  Level FlightAware ADS-B
Sat 04:16:12 PM 40.3325 -119.9446 263° West 499 574 36,000  Level FlightAware ADS-B
Sat 04:16:44 PM 40.3243 -120.0338 263° West 499 574 36,000  Level FlightAware ADS-B
Sat 04:17:14 PM 40.3148 -120.1356 263° West 499 574 36,000  Level FlightAware ADS-B
Sat 04:17:59 PM 40.3031 -120.2606 263° West 499 574 36,000  Level FlightAware ADS-B
Sat 04:18:29 PM 40.2943 -120.3529 263° West 500 575 36,000  Level FlightAware ADS-B
Sat 04:19:16 PM 40.2799 -120.5027 263° West 501 577 36,000  Level FlightAware ADS-B
Sat 04:19:55 PM 40.2681 -120.6246 263° West 502 578 36,000  Level FlightAware ADS-B
Sat 04:20:28 PM 40.2599 -120.7076 263° West 502 578 36,000  Level FlightAware ADS-B
Sat 04:21:08 PM 40.2469 -120.8395 263° West 503 579 36,000  Level FlightAware ADS-B
Sat 04:21:39 PM 40.2376 -120.9318 263° West 504 580 36,000  Level FlightAware ADS-B
Sat 04:22:09 PM 40.2279 -121.0285 263° West 505 581 36,000  Level FlightAware ADS-B
Sat 04:22:51 PM 40.2150 -121.1545 262° West 507 583 36,000  Level FlightAware ADS-B
Sat 04:23:21 PM 40.2055 -121.2466 262° West 508 585 36,000  Level FlightAware ADS-B
Sat 04:24:03 PM 40.1933 -121.3649 262° West 508 585 36,000  Level FlightAware ADS-B
Sat 04:24:33 PM 40.1828 -121.4649 262° West 507 583 36,000  Level FlightAware ADS-B
Sat 04:25:16 PM 40.1692 -121.5935 262° West 509 586 36,000  Level FlightAware ADS-B
Sat 04:25:55 PM 40.1581 -121.6976 262° West 511 588 36,000  Level FlightAware ADS-B
Sat 04:26:27 PM 40.1458 -121.8110 262° West 511 588 36,000  Level FlightAware ADS-B
Sat 04:26:57 PM 40.1369 -121.8934 262° West 512 589 36,000  Level FlightAware ADS-B
Sat 04:27:37 PM 40.1225 -122.0243 262° West 514 592 36,000  Level FlightAware ADS-B
Sat 04:28:08 PM 40.1121 -122.1188 262° West 515 593 36,000  Level FlightAware ADS-B
Sat 04:28:44 PM 40.1020 -122.2260 263° West 515 593 36,000  Level FlightAware ADS-B
Sat 04:29:27 PM 40.0980 -122.3630 268° West 516 594 36,000  Level FlightAware ADS-B
Sat 04:30:05 PM 40.0980 -122.4790 270° West 516 594 36,000  Level FlightAware ADS-B
Sat 04:30:41 PM 40.0970 -122.5940 269° West 516 594 36,000  Level FlightAware ADS-B
Sat 04:31:13 PM 40.0960 -122.6930 269° West 516 594 36,000  Level FlightAware ADS-B
Sat 04:31:49 PM 40.0950 -122.8040 269° West 515 593 36,000  Level FlightAware ADS-B
Sat 04:32:23 PM 40.0940 -122.9070 269° West 515 593 36,000  Level FlightAware ADS-B
Sat 04:32:57 PM 40.0930 -123.0170 269° West 516 594 36,000  Level FlightAware ADS-B
Sat 04:33:41 PM 40.0920 -123.1500 269° West 516 594 36,000  Level FlightAware ADS-B
Sat 04:34:12 PM 40.0940 -123.2440 272° West 516 594 36,000  Level FlightAware ADS-B
Sat 04:34:51 PM 40.0980 -123.3670 272° West 517 595 36,000  Level FlightAware ADS-B
Sat 04:35:27 PM 40.1010 -123.4730 272° West 517 595 36,000  Level FlightAware ADS-B
Sat 04:36:01 PM 40.1040 -123.5870 272° West 518 596 36,000  Level FlightAware ADS-B
Sat 04:36:32 PM 40.1060 -123.6720 272° West 517 595 36,000  Level FlightAware ADS-B
Sat 04:37:21 PM 40.1110 -123.8280 272° West 517 595 36,000  Level FlightAware ADS-B
Sat 04:38:02 PM 40.1140 -123.9570 272° West 518 596 36,000  Level FlightAware ADS-B
Sat 04:38:42 PM 40.1170 -124.0810 272° West 518 596 36,000  Level FlightAware ADS-B
Sat 04:39:17 PM 40.1200 -124.2000 272° West 518 596 36,000  Level FlightAware ADS-B
Sat 04:39:54 PM 40.1230 -124.3130 272° West 518 596 36,000  Level FlightAware ADS-B
Sat 04:40:33 PM 40.1250 -124.4190 271° West 517 595 36,000  Level FlightAware ADS-B
Sat 04:41:10 PM 40.1280 -124.5500 272° West 517 595 36,000  Level FlightAware ADS-B
Sat 04:41:42 PM 40.1290 -124.6480 271° West 517 595 36,000  Level FlightAware ADS-B
Sat 04:42:20 PM 40.1310 -124.7560 271° West 517 595 36,000  Level FlightAware ADS-B
Sat 04:42:52 PM 40.1340 -124.8690 272° West 516 594 36,000  Level FlightAware ADS-B
Sat 04:43:33 PM 40.1350 -124.9770 271° West 516 594 36,000  Level FlightAware ADS-B
Sat 04:44:10 PM 40.1360 -125.0760 271° West 516 594 36,000  Level FlightAware ADS-B
Sat 04:44:46 PM 40.1380 -125.1710 272° West 516 594 36,000  Level FlightAware ADS-B
Sat 04:45:22 PM 40.1390 -125.2670 271° West 516 594 36,000  Level FlightAware ADS-B
Sat 04:45:58 PM 40.1400 -125.3620 271° West 516 594 36,000  Level FlightAware ADS-B
Sat 04:46:35 PM 40.1410 -125.4600 271° West 516 594 36,000  Level FlightAware ADS-B
Sat 04:47:11 PM 40.1430 -125.5560 272° West 516 594 36,000  Level FlightAware ADS-B
Sat 04:47:47 PM 40.1440 -125.6510 271° West 516 594 36,000  Level FlightAware ADS-B
Sat 04:48:23 PM 40.1450 -125.7470 271° West 516 594 36,000  Level FlightAware ADS-B
Sat 04:48:57 PM 40.1460 -125.8370 271° West 516 594 36,000  Level FlightAware ADS-B
Sat 04:49:34 PM 40.1480 -125.9350 272° West 516 594 36,000  Level FlightAware ADS-B
Sat 04:50:10 PM 40.1490 -126.0310 271° West 516 594 36,000  Level FlightAware ADS-B
Sat 04:50:46 PM 40.1500 -126.1270 271° West 516 594 36,000  Level FlightAware ADS-B
Sat 04:51:20 PM 40.1510 -126.2170 271° West 516 594 36,000  Level FlightAware ADS-B
Sat 04:51:57 PM 40.1530 -126.3150 272° West 516 594 36,000  Level FlightAware ADS-B
Sat 04:52:34 PM 40.1540 -126.4130 271° West 516 594 36,000 -63 Level FlightAware ADS-B
Sat 04:53:32 PM 40.1517 -126.7889 271° West 494 568 35,900  Descending Oakland Center
Sat 04:54:52 PM 40.1500 -127.0000 291° West 489 563 36,000 43 Climbing Oakland Oceanic (ODAPS)
Sat 04:55:51 PM 40.2000 -127.1833 291° West 489 563 36,000  Level Oakland Oceanic (ODAPS)
Sat 05:01:00 PM 40.4483 -128.0110 291° West 489 563 36,000  Level FlightAware Transoceanic
Sat 05:02:00 PM 40.4969 -128.1914 291° West 489 563 36,000  Level FlightAware Transoceanic
Sat 05:03:00 PM 40.5455 -128.3603 291° West 489 563 36,000  Level FlightAware Transoceanic
Sat 05:04:00 PM 40.5939 -128.5294 291° West 489 563 36,000  Level FlightAware Transoceanic
Sat 05:04:14 PM 40.6000 -128.5667 291° West 492 566 36,000  Level Oakland Oceanic (ODAPS)
Sat 05:05:00 PM 40.6420 -128.6988 290° West 489 563 36,000  Level FlightAware Transoceanic
Sat 05:06:00 PM 40.6899 -128.8684 290° West 489 563 36,000  Level FlightAware Transoceanic
Sat 05:07:00 PM 40.7375 -129.0382 290° West 489 563 36,000  Level FlightAware Transoceanic
Sat 05:08:00 PM 40.7849 -129.2083 290° West 489 563 36,000  Level FlightAware Transoceanic
Sat 05:09:00 PM 40.8320 -129.3787 290° West 489 563 36,000  Level FlightAware Transoceanic
Sat 05:10:00 PM 40.8820 -129.5694 290° West 492 566 36,000  Level FlightAware Transoceanic
Sat 05:11:00 PM 40.9282 -129.7374 290° West 492 566 36,000  Level FlightAware Transoceanic
Sat 05:12:00 PM 40.9741 -129.9056 290° West 492 566 36,000  Level FlightAware Transoceanic
Sat 05:13:00 PM 41.0198 -130.0740 290° West 492 566 36,000  Level FlightAware Transoceanic
Sat 05:14:00 PM 41.0652 -130.2426 290° West 492 566 36,000  Level FlightAware Transoceanic
Sat 05:15:00 PM 41.1104 -130.4115 289° West 492 566 36,000  Level FlightAware Transoceanic
Sat 05:16:00 PM 41.1553 -130.5806 289° West 492 566 36,000  Level FlightAware Transoceanic
Sat 05:17:00 PM 41.2000 -130.7500 288° West 492 566 36,000  Level FlightAware Transoceanic
Sat 05:17:18 PM 41.2000 -130.7500 288° West 482 555 36,000  Level Oakland Oceanic (ODAPS)
Sat 05:18:00 PM 41.2392 -130.9133 288° West 492 566 36,000  Level FlightAware Transoceanic
Sat 05:18:08 PM 41.2333 -130.9000 288° West 481 554 36,000  Level Oakland Oceanic (ODAPS)
Sat 05:19:00 PM 41.2782 -131.0768 288° West 492 566 36,000  Level FlightAware Transoceanic
Sat 05:20:00 PM 41.3170 -131.2404 287° West 492 566 36,000  Level FlightAware Transoceanic
Sat 05:21:00 PM 41.3555 -131.4043 287° West 492 566 36,000  Level FlightAware Transoceanic
Sat 05:22:00 PM 41.3938 -131.5683 287° West 492 566 36,000  Level FlightAware Transoceanic
Sat 05:23:00 PM 41.4405 -131.7698 287° West 482 555 36,000  Level FlightAware Transoceanic
Sat 05:24:00 PM 41.4733 -131.9231 287° West 481 554 36,000  Level FlightAware Transoceanic
Sat 05:25:00 PM 41.5125 -132.0944 287° West 481 554 36,000  Level FlightAware Transoceanic
Sat 05:26:00 PM 41.5513 -132.2659 287° West 481 554 36,000  Level FlightAware Transoceanic
Sat 05:27:00 PM 41.5899 -132.4375 287° West 481 554 36,000  Level FlightAware Transoceanic
Sat 05:28:00 PM 41.6283 -132.6094 287° West 481 554 36,000  Level FlightAware Transoceanic
Sat 05:29:00 PM 41.6664 -132.7815 286° West 481 554 36,000  Level FlightAware Transoceanic
Sat 05:30:00 PM 41.7042 -132.9537 286° West 481 554 36,000  Level FlightAware Transoceanic
Sat 05:31:00 PM 41.7418 -133.1262 286° West 481 554 36,000  Level FlightAware Transoceanic
Sat 05:31:59 PM 41.7667 -133.2500 286° West 482 555 36,000  Level Oakland Oceanic (ODAPS)
Sat 05:32:00 PM 41.7791 -133.2989 286° West 481 554 36,000  Level FlightAware Transoceanic
Sat 05:33:00 PM 41.8162 -133.4718 286° West 481 554 36,000  Level FlightAware Transoceanic
Sat 05:34:00 PM 41.8530 -133.6449 286° West 481 554 36,000  Level FlightAware Transoceanic
Sat 05:35:00 PM 41.8895 -133.8181 286° West 481 554 36,000  Level FlightAware Transoceanic
Sat 05:36:00 PM 41.9258 -133.9916 286° West 481 554 36,000  Level FlightAware Transoceanic
Sat 05:37:00 PM 41.9618 -134.1653 286° West 481 554 36,000  Level FlightAware Transoceanic
Sat 05:38:00 PM 41.9875 -134.2977 285° West 482 555 36,000  Level FlightAware Transoceanic
Sat 05:39:00 PM 42.0234 -134.4730 285° West 482 555 36,000  Level FlightAware Transoceanic
Sat 05:40:00 PM 42.0590 -134.6485 285° West 482 555 36,000  Level FlightAware Transoceanic
Sat 05:41:00 PM 42.0943 -134.8242 285° West 482 555 36,000  Level FlightAware Transoceanic
Sat 05:42:00 PM 42.1294 -135.0001 285° West 482 555 36,000  Level FlightAware Transoceanic
Sat 05:43:00 PM 42.1642 -135.1762 285° West 482 555 36,000  Level FlightAware Transoceanic
Sat 05:44:00 PM 42.1987 -135.3525 285° West 482 555 36,000  Level FlightAware Transoceanic
Sat 05:45:00 PM 42.2330 -135.5290 285° West 482 555 36,000  Level FlightAware Transoceanic
Sat 05:45:52 PM 42.2667 -135.6667 284° West 484 557 36,000  Level Oakland Oceanic (ODAPS)
Sat 05:46:00 PM 42.2670 -135.7056 285° West 482 555 36,000  Level FlightAware Transoceanic
Sat 05:47:00 PM 42.3007 -135.8825 284° West 482 555 36,000  Level FlightAware Transoceanic
Sat 05:48:00 PM 42.3341 -136.0595 284° West 482 555 36,000  Level FlightAware Transoceanic
Sat 05:49:00 PM 42.3673 -136.2368 284° West 482 555 36,000  Level FlightAware Transoceanic
Sat 05:50:00 PM 42.4002 -136.4142 284° West 482 555 36,000  Level FlightAware Transoceanic
Sat 05:51:00 PM 42.4328 -136.5918 284° West 482 555 36,000  Level FlightAware Transoceanic
Sat 05:52:00 PM 42.4652 -136.7403 284° West 484 557 36,000  Level FlightAware Transoceanic
Sat 05:53:00 PM 42.4974 -136.9199 284° West 484 557 36,000  Level FlightAware Transoceanic
Sat 05:54:00 PM 42.5292 -137.0997 283° West 484 557 36,000  Level FlightAware Transoceanic
Sat 05:55:00 PM 42.5608 -137.2796 283° West 484 557 36,000  Level FlightAware Transoceanic
Sat 05:56:00 PM 42.5920 -137.4597 283° West 484 557 36,000  Level FlightAware Transoceanic
Sat 05:57:00 PM 42.6230 -137.6401 283° West 484 557 36,000  Level FlightAware Transoceanic
Sat 05:58:00 PM 42.6538 -137.8206 283° West 484 557 36,000  Level FlightAware Transoceanic
Sat 05:59:00 PM 42.6842 -138.0012 283° West 484 557 36,000  Level FlightAware Transoceanic
Sat 05:59:45 PM 42.7000 -138.1333 283° West 485 558 36,000  Level Oakland Oceanic (ODAPS)
Sat 06:00:00 PM 42.7143 -138.1821 283° West 484 557 36,000  Level FlightAware Transoceanic
Sat 06:01:00 PM 42.7442 -138.3631 283° West 484 557 36,000  Level FlightAware Transoceanic
Sat 06:02:00 PM 42.7738 -138.5443 282° West 484 557 36,000  Level FlightAware Transoceanic
Sat 06:03:00 PM 42.8030 -138.7257 282° West 484 557 36,000  Level FlightAware Transoceanic
Sat 06:04:00 PM 42.8320 -138.9072 282° West 484 557 36,000  Level FlightAware Transoceanic
Sat 06:05:00 PM 42.8608 -139.0889 282° West 484 557 36,000  Level FlightAware Transoceanic
Sat 06:06:00 PM 42.8944 -139.3191 282° West 485 558 36,000  Level FlightAware Transoceanic
Sat 06:07:00 PM 42.9212 -139.4891 282° West 485 558 36,000  Level FlightAware Transoceanic
Sat 06:08:00 PM 42.9477 -139.6593 282° West 485 558 36,000  Level FlightAware Transoceanic
Sat 06:09:00 PM 42.9740 -139.8296 282° West 485 558 36,000  Level FlightAware Transoceanic
Sat 06:10:00 PM 43.0000 -140.0000 289° West 485 558 36,000  Level FlightAware Transoceanic
Sat 06:10:19 PM 43.0000 -140.0000 289° West 478 550 36,000  Level Oakland Oceanic (ODAPS)
Sat 06:11:00 PM 43.0417 -140.1664 289° West 485 558 36,000  Level FlightAware Transoceanic
Sat 06:12:00 PM 43.0832 -140.3331 289° West 485 558 36,000  Level FlightAware Transoceanic
Sat 06:12:35 PM 43.1000 -140.3833 289° West 480 552 36,000  Level Oakland Oceanic (ODAPS)
Sat 06:13:00 PM 43.1244 -140.5000 289° West 485 558 36,000  Level FlightAware Transoceanic
Sat 06:13:38 PM 43.1333 -140.5500 289° West 479 551 36,000  Level Oakland Oceanic (ODAPS)
Sat 06:14:00 PM 43.1654 -140.6671 289° West 485 558 36,000  Level FlightAware Transoceanic
Sat 06:15:00 PM 43.2061 -140.8344 288° West 485 558 36,000  Level FlightAware Transoceanic
Sat 06:16:00 PM 43.2553 -141.0379 288° West 478 550 36,000  Level FlightAware Transoceanic
Sat 06:17:00 PM 43.2969 -141.2117 288° West 478 550 36,000  Level FlightAware Transoceanic
Sat 06:18:00 PM 43.3503 -141.4202 288° West 480 552 36,000  Level FlightAware Transoceanic
Sat 06:19:00 PM 43.3831 -141.5888 288° West 479 551 36,000  Level FlightAware Transoceanic
Sat 06:20:00 PM 43.4238 -141.7627 288° West 479 551 36,000  Level FlightAware Transoceanic
Sat 06:21:00 PM 43.4643 -141.9369 288° West 479 551 36,000  Level FlightAware Transoceanic
Sat 06:22:00 PM 43.5045 -142.1113 288° West 479 551 36,000  Level FlightAware Transoceanic
Sat 06:23:00 PM 43.5444 -142.2860 287° West 479 551 36,000  Level FlightAware Transoceanic
Sat 06:24:00 PM 43.5840 -142.4609 287° West 479 551 36,000  Level FlightAware Transoceanic
Sat 06:25:00 PM 43.6234 -142.6360 287° West 479 551 36,000  Level FlightAware Transoceanic
Sat 06:26:00 PM 43.6626 -142.8113 287° West 479 551 36,000  Level FlightAware Transoceanic
Sat 06:27:00 PM 43.7014 -142.9869 287° West 479 551 36,000 1,333 Level FlightAware Transoceanic
Sat 06:27:30 PM 43.6833 -142.9167 287° West 468 539 38,000  Climbing Oakland Oceanic (ODAPS)
Sat 06:28:00 PM 43.7400 -143.1627 287° West 479 551 36,000 -1,333 Descending FlightAware Transoceanic
Sat 06:29:00 PM 43.7783 -143.3387 287° West 479 551 36,000  Level FlightAware Transoceanic
Sat 06:30:00 PM 43.8163 -143.5150 287° West 479 551 36,000  Level FlightAware Transoceanic
Sat 06:31:00 PM 43.8541 -143.6914 286° West 479 551 36,000  Level FlightAware Transoceanic
Sat 06:32:00 PM 43.8916 -143.8681 286° West 479 551 36,000 1,000 Level FlightAware Transoceanic
Sat 06:33:00 PM 43.9031 -143.9328 286° West 468 539 38,000 1,000 Climbing FlightAware Transoceanic
Sat 06:34:00 PM 43.9388 -144.1029 286° West 468 539 38,000  Level FlightAware Transoceanic
Sat 06:35:00 PM 43.9743 -144.2732 286° West 468 539 38,000  Level FlightAware Transoceanic
Sat 06:36:00 PM 44.0095 -144.4437 286° West 468 539 38,000  Level FlightAware Transoceanic
Sat 06:37:00 PM 44.0445 -144.6143 286° West 468 539 38,000  Level FlightAware Transoceanic
Sat 06:38:00 PM 44.0793 -144.7852 286° West 468 539 38,000  Level FlightAware Transoceanic
Sat 06:39:00 PM 44.1137 -144.9563 286° West 468 539 38,000  Level FlightAware Transoceanic
Sat 06:40:00 PM 44.1480 -145.1276 285° West 468 539 38,000  Level FlightAware Transoceanic
Sat 06:41:00 PM 44.1819 -145.2991 285° West 468 539 38,000 769 Level FlightAware Transoceanic
Sat 06:41:18 PM 44.2000 -145.3333 285° West 474 545 39,000  Climbing Oakland Oceanic (ODAPS)
Sat 06:42:00 PM 44.2156 -145.4708 285° West 468 539 38,000 -588 Descending FlightAware Transoceanic
Sat 06:43:00 PM 44.2491 -145.6427 285° West 468 539 38,000  Level FlightAware Transoceanic
Sat 06:44:00 PM 44.2823 -145.8147 285° West 468 539 38,000  Level FlightAware Transoceanic
Sat 06:45:00 PM 44.3152 -145.9870 285° West 468 539 38,000  Level FlightAware Transoceanic
Sat 06:46:00 PM 44.3479 -146.1595 285° West 468 539 38,000 500 Level FlightAware Transoceanic
Sat 06:47:00 PM 44.4014 -146.3987 284° West 474 545 39,000 500 Climbing FlightAware Transoceanic
Sat 06:48:00 PM 44.4340 -146.5769 284° West 474 545 39,000  Level FlightAware Transoceanic
Sat 06:49:00 PM 44.4663 -146.7554 284° West 474 545 39,000  Level FlightAware Transoceanic
Sat 06:50:00 PM 44.4984 -146.9340 284° West 474 545 39,000  Level FlightAware Transoceanic
Sat 06:51:00 PM 44.5301 -147.1129 284° West 474 545 39,000  Level FlightAware Transoceanic
Sat 06:52:00 PM 44.5616 -147.2919 284° West 474 545 39,000  Level FlightAware Transoceanic
Sat 06:53:00 PM 44.5928 -147.4712 284° West 474 545 39,000  Level FlightAware Transoceanic
Sat 06:54:00 PM 44.6238 -147.6506 284° West 474 545 39,000  Level FlightAware Transoceanic
Sat 06:55:00 PM 44.6544 -147.8302 283° West 474 545 39,000  Level FlightAware Transoceanic
Sat 06:55:10 PM 44.6500 -147.8000 283° West 474 545 39,000  Level Oakland Oceanic (ODAPS)
Sat 06:56:00 PM 44.6848 -148.0100 283° West 474 545 39,000  Level FlightAware Transoceanic
Sat 06:57:00 PM 44.7149 -148.1900 283° West 474 545 39,000  Level FlightAware Transoceanic
Sat 06:58:00 PM 44.7447 -148.3702 283° West 474 545 39,000  Level FlightAware Transoceanic
Sat 06:59:00 PM 44.7742 -148.5506 283° West 474 545 39,000  Level FlightAware Transoceanic
Sat 07:00:00 PM 44.8034 -148.7311 283° West 474 545 39,000  Level FlightAware Transoceanic
Sat 07:01:00 PM 44.8303 -148.8967 283° West 474 545 39,000  Level FlightAware Transoceanic
Sat 07:02:00 PM 44.8593 -149.0801 283° West 474 545 39,000  Level FlightAware Transoceanic
Sat 07:03:00 PM 44.8880 -149.2637 282° West 474 545 39,000  Level FlightAware Transoceanic
Sat 07:04:00 PM 44.9165 -149.4475 282° West 474 545 39,000  Level FlightAware Transoceanic
Sat 07:05:00 PM 44.9446 -149.6315 282° West 474 545 39,000  Level FlightAware Transoceanic
Sat 07:06:00 PM 44.9725 -149.8157 282° West 474 545 39,000  Level FlightAware Transoceanic
Sat 07:07:00 PM 45.0000 -150.0000 282° West 474 545 39,000  Level FlightAware Transoceanic
Sat 07:07:24 PM 45.0000 -150.0000 282° West 468 539 39,000  Level Oakland Oceanic (ODAPS)
Sat 07:08:00 PM 45.0250 -150.1720 282° West 474 545 39,000  Level FlightAware Transoceanic
Sat 07:09:00 PM 45.0497 -150.3441 281° West 474 545 39,000  Level FlightAware Transoceanic
Sat 07:09:00 PM 45.0500 -150.3167 281° West 462 532 39,000  Level Oakland Oceanic (ODAPS)
Sat 07:10:00 PM 45.0742 -150.5164 281° West 474 545 39,000  Level FlightAware Transoceanic
Sat 07:11:00 PM 45.0984 -150.6888 281° West 474 545 39,000  Level FlightAware Transoceanic
Sat 07:12:00 PM 45.1223 -150.8614 281° West 474 545 39,000  Level FlightAware Transoceanic
Sat 07:13:00 PM 45.1511 -151.0719 281° West 468 539 39,000  Level FlightAware Transoceanic
Sat 07:14:00 PM 45.1753 -151.2510 281° West 468 539 39,000  Level FlightAware Transoceanic
Sat 07:15:00 PM 45.1983 -151.3948 281° West 462 532 39,000  Level FlightAware Transoceanic
Sat 07:16:00 PM 45.2220 -151.5750 281° West 462 532 39,000  Level FlightAware Transoceanic
Sat 07:17:00 PM 45.2454 -151.7554 280° West 462 532 39,000  Level FlightAware Transoceanic
Sat 07:18:00 PM 45.2686 -151.9359 280° West 462 532 39,000  Level FlightAware Transoceanic
Sat 07:19:00 PM 45.2915 -152.1166 280° West 462 532 39,000  Level FlightAware Transoceanic
Sat 07:20:00 PM 45.3141 -152.2974 280° West 462 532 39,000  Level FlightAware Transoceanic
Sat 07:21:00 PM 45.3364 -152.4784 280° West 462 532 39,000  Level FlightAware Transoceanic
Sat 07:22:00 PM 45.3584 -152.6595 280° West 462 532 39,000  Level FlightAware Transoceanic
Sat 07:22:52 PM 45.3667 -152.8000 280° West 456 525 39,000  Level Oakland Oceanic (ODAPS)
Sat 07:23:00 PM 45.3801 -152.8407 280° West 462 532 39,000  Level FlightAware Transoceanic
Sat 07:24:00 PM 45.4016 -153.0221 279° West 462 532 39,000  Level FlightAware Transoceanic
Sat 07:25:00 PM 45.4227 -153.2036 279° West 462 532 39,000  Level FlightAware Transoceanic
Sat 07:26:00 PM 45.4436 -153.3853 279° West 462 532 39,000  Level FlightAware Transoceanic
Sat 07:27:00 PM 45.4641 -153.5670 279° West 462 532 39,000  Level FlightAware Transoceanic
Sat 07:28:00 PM 45.4844 -153.7489 279° West 462 532 39,000  Level FlightAware Transoceanic
Sat 07:29:00 PM 45.4904 -153.8688 279° West 456 525 39,000  Level FlightAware Transoceanic
Sat 07:30:00 PM 45.5100 -154.0474 279° West 456 525 39,000  Level FlightAware Transoceanic
Sat 07:31:00 PM 45.5294 -154.2261 279° West 456 525 39,000  Level FlightAware Transoceanic
Sat 07:32:00 PM 45.5485 -154.4049 279° West 456 525 39,000  Level FlightAware Transoceanic
Sat 07:33:00 PM 45.5673 -154.5838 278° West 456 525 39,000  Level FlightAware Transoceanic
Sat 07:34:00 PM 45.5858 -154.7629 278° West 456 525 39,000  Level FlightAware Transoceanic
Sat 07:35:00 PM 45.6040 -154.9421 278° West 456 525 39,000  Level FlightAware Transoceanic
Sat 07:36:00 PM 45.6220 -155.1214 278° West 456 525 39,000  Level FlightAware Transoceanic
Sat 07:36:44 PM 45.6333 -155.2167 278° West 445 512 39,000  Level Oakland Oceanic (ODAPS)
Sat 07:37:00 PM 45.6397 -155.3008 278° West 456 525 39,000  Level FlightAware Transoceanic
Sat 07:38:00 PM 45.6571 -155.4803 278° West 456 525 39,000  Level FlightAware Transoceanic
Sat 07:39:00 PM 45.6742 -155.6600 278° West 456 525 39,000  Level FlightAware Transoceanic
Sat 07:40:00 PM 45.6911 -155.8397 278° West 456 525 39,000  Level FlightAware Transoceanic
Sat 07:41:00 PM 45.7076 -156.0196 277° West 456 525 39,000  Level FlightAware Transoceanic
Sat 07:42:00 PM 45.7287 -156.2361 277° West 445 512 39,000  Level FlightAware Transoceanic
Sat 07:43:00 PM 45.7437 -156.4063 277° West 445 512 39,000  Level FlightAware Transoceanic
Sat 07:44:00 PM 45.7584 -156.5767 277° West 445 512 39,000  Level FlightAware Transoceanic
Sat 07:45:00 PM 45.7729 -156.7471 277° West 445 512 39,000  Level FlightAware Transoceanic
Sat 07:46:00 PM 45.7872 -156.9176 277° West 445 512 39,000  Level FlightAware Transoceanic
Sat 07:47:00 PM 45.8012 -157.0882 277° West 445 512 39,000  Level FlightAware Transoceanic
Sat 07:48:00 PM 45.8149 -157.2589 277° West 445 512 39,000  Level FlightAware Transoceanic
Sat 07:49:00 PM 45.8284 -157.4296 276° West 445 512 39,000  Level FlightAware Transoceanic
Sat 07:50:00 PM 45.8416 -157.6004 276° West 445 512 39,000  Level FlightAware Transoceanic
Sat 07:50:37 PM 45.8500 -157.6167 276° West 443 510 39,000  Level Oakland Oceanic (ODAPS)
Sat 07:51:00 PM 45.8546 -157.7714 276° West 445 512 39,000  Level FlightAware Transoceanic
Sat 07:52:00 PM 45.8673 -157.9424 276° West 445 512 39,000  Level FlightAware Transoceanic
Sat 07:53:00 PM 45.8798 -158.1135 276° West 445 512 39,000  Level FlightAware Transoceanic
Sat 07:54:00 PM 45.8920 -158.2846 276° West 445 512 39,000  Level FlightAware Transoceanic
Sat 07:55:00 PM 45.9039 -158.4558 276° West 445 512 39,000  Level FlightAware Transoceanic
Sat 07:56:00 PM 45.9156 -158.6271 276° West 445 512 39,000  Level FlightAware Transoceanic
Sat 07:57:00 PM 45.9312 -158.8067 275° West 443 510 39,000  Level FlightAware Transoceanic
Sat 07:58:00 PM 45.9418 -158.9770 275° West 443 510 39,000  Level FlightAware Transoceanic
Sat 07:59:00 PM 45.9521 -159.1474 275° West 443 510 39,000  Level FlightAware Transoceanic
Sat 08:00:00 PM 45.9622 -159.3178 275° West 443 510 39,000  Level FlightAware Transoceanic
Sat 08:01:00 PM 45.9720 -159.4882 275° West 443 510 39,000  Level FlightAware Transoceanic
Sat 08:02:00 PM 45.9816 -159.6588 275° West 443 510 39,000  Level FlightAware Transoceanic
Sat 08:03:00 PM 45.9909 -159.8293 274° West 443 510 39,000  Level FlightAware Transoceanic
Sat 08:04:00 PM 46.0000 -160.0000 265° West 443 510 39,000  Level FlightAware Transoceanic
Sat 08:04:32 PM 46.0000 -160.0000 265° West 425 489 39,000  Level Oakland Oceanic (ODAPS)
Sat 08:04:36 PM 46.0000 -160.0000 265° West 420 483 39,000  Level Oakland Oceanic (ODAPS)
Sat 08:05:00 PM 45.9912 -160.1586 265° West 443 510 39,000  Level FlightAware Transoceanic
Sat 08:06:00 PM 45.9821 -160.3172 265° West 443 510 39,000  Level FlightAware Transoceanic
Sat 08:07:00 PM 45.9728 -160.4757 265° West 443 510 39,000  Level FlightAware Transoceanic
Sat 08:08:00 PM 45.9633 -160.6342 265° West 443 510 39,000  Level FlightAware Transoceanic
Sat 08:09:00 PM 45.9536 -160.7926 265° West 443 510 39,000  Level FlightAware Transoceanic
Sat 08:10:00 PM 45.9397 -161.0143 265° West 425 489 39,000  Level FlightAware Transoceanic
Sat 08:11:00 PM 45.9287 -161.1831 265° West 425 489 39,000  Level FlightAware Transoceanic
Sat 08:12:00 PM 45.9175 -161.3518 264° West 425 489 39,000  Level FlightAware Transoceanic
Sat 08:13:00 PM 45.9061 -161.5205 264° West 425 489 39,000  Level FlightAware Transoceanic
Sat 08:14:00 PM 45.8944 -161.6891 264° West 425 489 39,000  Level FlightAware Transoceanic
Sat 08:15:00 PM 45.8825 -161.8577 264° West 425 489 39,000  Level FlightAware Transoceanic
Sat 08:16:00 PM 45.8703 -162.0262 264° West 425 489 39,000  Level FlightAware Transoceanic
Sat 08:17:00 PM 45.8579 -162.1945 264° West 425 489 39,000  Level FlightAware Transoceanic
Sat 08:18:00 PM 45.8453 -162.3629 264° West 425 489 39,000  Level FlightAware Transoceanic
Sat 08:18:21 PM 45.8500 -162.3667 264° West 425 489 39,000  Level Oakland Oceanic (ODAPS)
Sat 08:19:00 PM 45.8324 -162.5311 264° West 425 489 39,000  Level FlightAware Transoceanic
Sat 08:20:00 PM 45.8192 -162.6993 264° West 425 489 39,000  Level FlightAware Transoceanic
Sat 08:21:00 PM 45.8058 -162.8674 263° West 425 489 39,000  Level FlightAware Transoceanic
Sat 08:22:00 PM 45.7921 -163.0354 263° West 425 489 39,000  Level FlightAware Transoceanic
Sat 08:23:00 PM 45.7782 -163.2033 263° West 425 489 39,000  Level FlightAware Transoceanic
Sat 08:24:00 PM 45.7682 -163.3745 263° West 425 489 39,000  Level FlightAware Transoceanic
Sat 08:25:00 PM 45.7537 -163.5422 263° West 425 489 39,000  Level FlightAware Transoceanic
Sat 08:26:00 PM 45.7389 -163.7097 263° West 425 489 39,000  Level FlightAware Transoceanic
Sat 08:27:00 PM 45.7240 -163.8772 263° West 425 489 39,000  Level FlightAware Transoceanic
Sat 08:28:00 PM 45.7087 -164.0447 263° West 425 489 39,000  Level FlightAware Transoceanic
Sat 08:29:00 PM 45.6933 -164.2120 262° West 425 489 39,000  Level FlightAware Transoceanic
Sat 08:30:00 PM 45.6775 -164.3792 262° West 425 489 39,000  Level FlightAware Transoceanic
Sat 08:31:00 PM 45.6616 -164.5463 262° West 425 489 39,000  Level FlightAware Transoceanic
Sat 08:32:00 PM 45.6454 -164.7134 262° West 425 489 39,000  Level FlightAware Transoceanic
Sat 08:32:11 PM 45.6500 -164.7000 262° West 418 481 39,000  Level Oakland Oceanic (ODAPS)
Sat 08:33:00 PM 45.6289 -164.8803 262° West 425 489 39,000  Level FlightAware Transoceanic
Sat 08:34:00 PM 45.6122 -165.0471 262° West 425 489 39,000  Level FlightAware Transoceanic
Sat 08:35:00 PM 45.5953 -165.2139 262° West 425 489 39,000  Level FlightAware Transoceanic
Sat 08:36:00 PM 45.5781 -165.3805 262° West 425 489 39,000  Level FlightAware Transoceanic
Sat 08:37:00 PM 45.5607 -165.5470 261° West 425 489 39,000  Level FlightAware Transoceanic
Sat 08:38:00 PM 45.5501 -165.6724 261° West 418 481 39,000  Level FlightAware Transoceanic
Sat 08:39:00 PM 45.5327 -165.8341 261° West 418 481 39,000  Level FlightAware Transoceanic
Sat 08:40:00 PM 45.5150 -165.9957 261° West 418 481 39,000  Level FlightAware Transoceanic
Sat 08:41:00 PM 45.4971 -166.1572 261° West 418 481 39,000  Level FlightAware Transoceanic
Sat 08:42:00 PM 45.4790 -166.3186 261° West 418 481 39,000  Level FlightAware Transoceanic
Sat 08:43:00 PM 45.4607 -166.4799 261° West 418 481 39,000  Level FlightAware Transoceanic
Sat 08:44:00 PM 45.4421 -166.6411 261° West 418 481 39,000  Level FlightAware Transoceanic
Sat 08:45:00 PM 45.4233 -166.8022 260° West 418 481 39,000  Level FlightAware Transoceanic
Sat 08:46:00 PM 45.4042 -166.9632 260° West 418 481 39,000  Level FlightAware Transoceanic
Sat 08:46:14 PM 45.4000 -166.9500 261° West 410 472 39,000  Level Oakland Oceanic (ODAPS)
Sat 08:47:00 PM 45.3850 -167.1241 260° West 418 481 39,000  Level FlightAware Transoceanic
Sat 08:48:00 PM 45.3655 -167.2849 260° West 418 481 39,000  Level FlightAware Transoceanic
Sat 08:49:00 PM 45.3458 -167.4455 260° West 418 481 39,000  Level FlightAware Transoceanic
Sat 08:50:00 PM 45.3258 -167.6061 260° West 418 481 39,000  Level FlightAware Transoceanic
Sat 08:51:00 PM 45.3057 -167.7665 260° West 418 481 39,000  Level FlightAware Transoceanic
Sat 08:52:00 PM 45.2825 -167.9177 260° West 410 472 39,000  Level FlightAware Transoceanic
Sat 08:53:00 PM 45.2621 -168.0786 260° West 410 472 39,000  Level FlightAware Transoceanic
Sat 08:54:00 PM 45.2415 -168.2394 260° West 410 472 39,000  Level FlightAware Transoceanic
Sat 08:55:00 PM 45.2206 -168.4001 260° West 410 472 39,000  Level FlightAware Transoceanic
Sat 08:56:00 PM 45.1996 -168.5606 259° West 410 472 39,000  Level FlightAware Transoceanic
Sat 08:57:00 PM 45.1783 -168.7210 259° West 410 472 39,000  Level FlightAware Transoceanic
Sat 08:58:00 PM 45.1568 -168.8813 259° West 410 472 39,000  Level FlightAware Transoceanic
Sat 08:59:00 PM 45.1351 -169.0415 259° West 410 472 39,000  Level FlightAware Transoceanic
Sat 08:59:58 PM 45.1167 -169.1167 260° West 398 458 39,000  Level Oakland Oceanic (ODAPS)
Sat 09:00:00 PM 45.1131 -169.2016 259° West 410 472 39,000  Level FlightAware Transoceanic
Sat 09:01:00 PM 45.0909 -169.3615 259° West 410 472 39,000  Level FlightAware Transoceanic
Sat 09:02:00 PM 45.0685 -169.5213 259° West 410 472 39,000  Level FlightAware Transoceanic
Sat 09:03:00 PM 45.0459 -169.6810 259° West 410 472 39,000  Level FlightAware Transoceanic
Sat 09:04:00 PM 45.0231 -169.8406 258° West 410 472 39,000  Level FlightAware Transoceanic
Sat 09:05:00 PM 45.0000 -170.0000 266° West 410 472 39,000  Level FlightAware Transoceanic
Sat 09:05:45 PM 45.0000 -170.0000 266° West 392 451 39,000  Level Oakland Oceanic (ODAPS)
Sat 09:06:00 PM 44.9919 -170.1449 265° West 398 458 39,000  Level FlightAware Transoceanic
Sat 09:07:00 PM 44.9837 -170.2899 265° West 398 458 39,000  Level FlightAware Transoceanic
Sat 09:08:00 PM 44.9752 -170.4347 265° West 398 458 39,000  Level FlightAware Transoceanic
Sat 09:09:00 PM 44.9666 -170.5796 265° West 398 458 39,000  Level FlightAware Transoceanic
Sat 09:10:00 PM 44.9578 -170.7243 265° West 398 458 39,000  Level FlightAware Transoceanic
Sat 09:11:00 PM 44.9488 -170.8691 265° West 398 458 39,000  Level FlightAware Transoceanic
Sat 09:12:00 PM 44.9367 -171.0591 265° West 392 451 39,000  Level FlightAware Transoceanic
Sat 09:13:00 PM 44.9269 -171.2102 265° West 392 451 39,000  Level FlightAware Transoceanic
Sat 09:13:50 PM 44.9333 -171.2333 265° West 385 443 39,000  Level Oakland Oceanic (ODAPS)
Sat 09:14:00 PM 44.9169 -171.3613 265° West 392 451 39,000  Level FlightAware Transoceanic
Sat 09:15:00 PM 44.9066 -171.5123 264° West 392 451 39,000  Level FlightAware Transoceanic
Sat 09:16:00 PM 44.8962 -171.6632 264° West 392 451 39,000  Level FlightAware Transoceanic
Sat 09:17:00 PM 44.8856 -171.8141 264° West 392 451 39,000  Level FlightAware Transoceanic
Sat 09:18:00 PM 44.8747 -171.9649 264° West 392 451 39,000  Level FlightAware Transoceanic
Sat 09:19:00 PM 44.8637 -172.1157 264° West 392 451 39,000  Level FlightAware Transoceanic
Sat 09:19:00 PM 44.8667 -172.0000 264° West 387 445 39,000  Level Oakland Oceanic (ODAPS)
Sat 09:20:00 PM 44.8693 -172.1365 264° West 385 443 39,000  Level FlightAware Transoceanic
Sat 09:21:00 PM 44.8580 -172.2869 264° West 385 443 39,000  Level FlightAware Transoceanic
Sat 09:22:00 PM 44.8464 -172.4371 264° West 385 443 39,000  Level FlightAware Transoceanic
Sat 09:23:00 PM 44.8346 -172.5874 264° West 385 443 39,000  Level FlightAware Transoceanic
Sat 09:24:00 PM 44.8227 -172.7375 264° West 385 443 39,000  Level FlightAware Transoceanic
Sat 09:25:00 PM 44.8106 -172.8876 263° West 385 443 39,000  Level FlightAware Transoceanic
Sat 09:26:00 PM 44.7982 -173.0376 263° West 385 443 39,000  Level FlightAware Transoceanic
Sat 09:27:00 PM 44.7738 -173.1991 263° West 387 445 39,000 594 Level FlightAware Transoceanic
Sat 09:27:41 PM 44.7667 -173.3000 263° West 382 440 40,000  Climbing Oakland Oceanic (ODAPS)
Sat 09:28:00 PM 44.7613 -173.3487 263° West 387 445 39,000 -759 Descending FlightAware Transoceanic
Sat 09:29:00 PM 44.7486 -173.4983 263° West 387 445 39,000  Level FlightAware Transoceanic
Sat 09:30:00 PM 44.7357 -173.6478 263° West 387 445 39,000  Level FlightAware Transoceanic
Sat 09:31:00 PM 44.7226 -173.7972 263° West 387 445 39,000  Level FlightAware Transoceanic
Sat 09:32:00 PM 44.7094 -173.9465 263° West 387 445 39,000  Level FlightAware Transoceanic
Sat 09:33:00 PM 44.6959 -174.0958 263° West 387 445 39,000 500 Level FlightAware Transoceanic
Sat 09:34:00 PM 44.6754 -174.3303 263° West 382 440 40,000 500 Climbing FlightAware Transoceanic
Sat 09:35:00 PM 44.6616 -174.4772 262° West 382 440 40,000  Level FlightAware Transoceanic
Sat 09:36:00 PM 44.6477 -174.6240 262° West 382 440 40,000  Level FlightAware Transoceanic
Sat 09:37:00 PM 44.6335 -174.7708 262° West 382 440 40,000  Level FlightAware Transoceanic
Sat 09:38:00 PM 44.6191 -174.9175 262° West 382 440 40,000  Level FlightAware Transoceanic
Sat 09:39:00 PM 44.6046 -175.0641 262° West 382 440 40,000  Level FlightAware Transoceanic
Sat 09:40:00 PM 44.5899 -175.2107 262° West 382 440 40,000  Level FlightAware Transoceanic
Sat 09:41:00 PM 44.5750 -175.3572 262° West 382 440 40,000 632 Level FlightAware Transoceanic
Sat 09:41:35 PM 44.5833 -175.3500 262° West 384 442 41,000  Climbing Oakland Oceanic (ODAPS)
Sat 09:42:00 PM 44.5598 -175.5036 262° West 382 440 40,000 -706 Descending FlightAware Transoceanic
Sat 09:43:00 PM 44.5446 -175.6499 262° West 382 440 40,000  Level FlightAware Transoceanic
Sat 09:44:00 PM 44.5291 -175.7961 262° West 382 440 40,000  Level FlightAware Transoceanic
Sat 09:45:00 PM 44.5134 -175.9423 261° West 382 440 40,000  Level FlightAware Transoceanic
Sat 09:46:00 PM 44.4976 -176.0884 261° West 382 440 40,000  Level FlightAware Transoceanic
Sat 09:47:00 PM 44.4815 -176.2344 261° West 382 440 40,000 500 Level FlightAware Transoceanic
Sat 09:48:00 PM 44.4719 -176.3749 261° West 384 442 41,000 500 Climbing FlightAware Transoceanic
Sat 09:49:00 PM 44.4552 -176.5210 261° West 384 442 41,000  Level FlightAware Transoceanic
Sat 09:50:00 PM 44.4384 -176.6670 261° West 384 442 41,000  Level FlightAware Transoceanic
Sat 09:51:00 PM 44.4214 -176.8129 261° West 384 442 41,000  Level FlightAware Transoceanic
Sat 09:52:00 PM 44.4041 -176.9587 261° West 384 442 41,000  Level FlightAware Transoceanic
Sat 09:53:00 PM 44.3867 -177.1044 260° West 384 442 41,000  Level FlightAware Transoceanic
Sat 09:54:00 PM 44.3691 -177.2501 260° West 384 442 41,000  Level FlightAware Transoceanic
Sat 09:55:00 PM 44.3514 -177.3957 260° West 384 442 41,000  Level FlightAware Transoceanic
Sat 09:55:26 PM 44.3500 -177.3667 260° West 376 433 41,000  Level Oakland Oceanic (ODAPS)
Sat 09:56:00 PM 44.3334 -177.5412 260° West 384 442 41,000  Level FlightAware Transoceanic
Sat 09:57:00 PM 44.3153 -177.6866 260° West 384 442 41,000  Level FlightAware Transoceanic
Sat 09:58:00 PM 44.2969 -177.8318 260° West 384 442 41,000  Level FlightAware Transoceanic
Sat 09:59:00 PM 44.2784 -177.9771 260° West 384 442 41,000  Level FlightAware Transoceanic
Sat 10:00:00 PM 44.2597 -178.1222 260° West 384 442 41,000  Level FlightAware Transoceanic
Sat 10:01:00 PM 44.2460 -178.2016 260° West 376 433 41,000  Level FlightAware Transoceanic
Sat 10:02:00 PM 44.2281 -178.3405 260° West 376 433 41,000  Level FlightAware Transoceanic
Sat 10:03:00 PM 44.2100 -178.4792 260° West 376 433 41,000  Level FlightAware Transoceanic
Sat 10:04:00 PM 44.1917 -178.6179 260° West 376 433 41,000  Level FlightAware Transoceanic
Sat 10:05:00 PM 44.1733 -178.7565 259° West 376 433 41,000  Level FlightAware Transoceanic
Sat 10:06:00 PM 44.1547 -178.8951 259° West 376 433 41,000  Level FlightAware Transoceanic
Sat 10:07:00 PM 44.1360 -179.0335 259° West 376 433 41,000  Level FlightAware Transoceanic
Sat 10:08:00 PM 44.1171 -179.1718 259° West 376 433 41,000  Level FlightAware Transoceanic
Sat 10:09:00 PM 44.0980 -179.3101 259° West 376 433 41,000  Level FlightAware Transoceanic
Sat 10:09:14 PM 44.1000 -179.3500 258° West 375 432 41,000  Level Oakland Oceanic (ODAPS)
Sat 10:10:00 PM 44.0787 -179.4483 259° West 376 433 41,000  Level FlightAware Transoceanic
Sat 10:11:00 PM 44.0593 -179.5863 259° West 376 433 41,000  Level FlightAware Transoceanic
Sat 10:12:00 PM 44.0397 -179.7243 259° West 376 433 41,000  Level FlightAware Transoceanic
Sat 10:13:00 PM 44.0199 -179.8622 259° West 376 433 41,000  Level FlightAware Transoceanic
Sat 10:13:57 PM 44.0000 180.0000 273° West 384 442 41,000  Level Oakland Oceanic (ODAPS)
Sat 10:14:00 PM 44.0000 -180.0000 273° West 376 433 41,000  Level FlightAware Transoceanic
Sat 10:15:00 PM 44.0064 179.8511 273° West 375 432 41,000  Level FlightAware Transoceanic
Sat 10:16:00 PM 44.0126 179.7022 273° West 375 432 41,000  Level FlightAware Transoceanic
Sat 10:17:00 PM 44.0187 179.5532 273° West 375 432 41,000  Level FlightAware Transoceanic
Sat 10:18:00 PM 44.0245 179.4042 273° West 375 432 41,000  Level FlightAware Transoceanic
Sat 10:19:00 PM 44.0301 179.2552 273° West 375 432 41,000  Level FlightAware Transoceanic
Sat 10:20:00 PM 44.0356 179.1061 273° West 384 442 41,000  Level FlightAware Transoceanic
Sat 10:21:00 PM 44.0408 178.9570 273° West 384 442 41,000  Level FlightAware Transoceanic
Sat 10:22:00 PM 44.0459 178.8079 273° West 384 442 41,000  Level FlightAware Transoceanic
Sat 10:23:00 PM 44.0507 178.6588 273° West 384 442 41,000  Level FlightAware Transoceanic
Sat 10:23:08 PM 44.0500 178.6500 273° West 388 447 41,000  Level Oakland Oceanic (ODAPS)
Sat 10:24:00 PM 44.0554 178.5096 272° West 384 442 41,000  Level FlightAware Transoceanic
Sat 10:25:00 PM 44.0599 178.3605 272° West 384 442 41,000  Level FlightAware Transoceanic
Sat 10:26:00 PM 44.0642 178.2113 272° West 384 442 41,000  Level FlightAware Transoceanic
Sat 10:27:00 PM 44.0682 178.0621 272° West 384 442 41,000  Level FlightAware Transoceanic
Sat 10:28:00 PM 44.0721 177.9128 272° West 384 442 41,000  Level FlightAware Transoceanic
Sat 10:29:00 PM 44.0751 177.7557 272° West 388 447 41,000  Level FlightAware Transoceanic
Sat 10:30:00 PM 44.0786 177.6065 272° West 388 447 41,000  Level FlightAware Transoceanic
Sat 10:31:00 PM 44.0819 177.4574 272° West 388 447 41,000  Level FlightAware Transoceanic
Sat 10:32:00 PM 44.0851 177.3082 272° West 388 447 41,000  Level FlightAware Transoceanic
Sat 10:33:00 PM 44.0880 177.1591 272° West 388 447 41,000  Level FlightAware Transoceanic
Sat 10:34:00 PM 44.0907 177.0099 271° West 388 447 41,000  Level FlightAware Transoceanic
Sat 10:35:00 PM 44.0933 176.8607 271° West 388 447 41,000  Level FlightAware Transoceanic
Sat 10:36:00 PM 44.0956 176.7115 271° West 388 447 41,000  Level FlightAware Transoceanic
Sat 10:37:00 PM 44.0977 176.5622 271° West 388 447 41,000  Level FlightAware Transoceanic
Sat 10:37:01 PM 44.1000 176.5833 271° West 395 455 41,000  Level Oakland Oceanic (ODAPS)
Sat 10:38:00 PM 44.0997 176.4130 271° West 388 447 41,000  Level FlightAware Transoceanic
Sat 10:39:00 PM 44.1015 176.2638 271° West 388 447 41,000  Level FlightAware Transoceanic
Sat 10:40:00 PM 44.1030 176.1145 271° West 388 447 41,000  Level FlightAware Transoceanic
Sat 10:41:00 PM 44.1044 175.9653 271° West 388 447 41,000  Level FlightAware Transoceanic
Sat 10:42:00 PM 44.1056 175.8160 271° West 388 447 41,000  Level FlightAware Transoceanic
Sat 10:43:00 PM 44.1088 175.6640 270° West 395 455 41,000  Level FlightAware Transoceanic
Sat 10:44:00 PM 44.1095 175.5108 270° West 395 455 41,000  Level FlightAware Transoceanic
Sat 10:45:00 PM 44.1101 175.3575 270° West 395 455 41,000  Level FlightAware Transoceanic
Sat 10:46:00 PM 44.1104 175.2043 270° West 395 455 41,000  Level FlightAware Transoceanic
Sat 10:47:00 PM 44.1105 175.0510 270° West 395 455 41,000  Level FlightAware Transoceanic
Sat 10:48:00 PM 44.1104 174.8978 270° West 395 455 41,000  Level FlightAware Transoceanic
Sat 10:49:00 PM 44.1102 174.7445 270° West 395 455 41,000  Level FlightAware Transoceanic
Sat 10:50:00 PM 44.1097 174.5913 270° West 395 455 41,000  Level FlightAware Transoceanic
Sat 10:50:54 PM 44.1000 174.4667 270° West 399 459 41,000  Level Oakland Oceanic (ODAPS)
Sat 10:51:00 PM 44.1090 174.4380 270° West 395 455 41,000  Level FlightAware Transoceanic
Sat 10:52:00 PM 44.1081 174.2848 269° West 395 455 41,000  Level FlightAware Transoceanic
Sat 10:53:00 PM 44.1070 174.1315 269° West 395 455 41,000  Level FlightAware Transoceanic
Sat 10:54:00 PM 44.1057 173.9783 269° West 395 455 41,000  Level FlightAware Transoceanic
Sat 10:55:00 PM 44.1042 173.8251 269° West 395 455 41,000  Level FlightAware Transoceanic
Sat 10:56:00 PM 44.1025 173.6719 269° West 395 455 41,000  Level FlightAware Transoceanic
Sat 10:57:00 PM 44.0936 173.5415 269° West 399 459 41,000  Level FlightAware Transoceanic
Sat 10:58:00 PM 44.0918 173.3873 269° West 399 459 41,000  Level FlightAware Transoceanic
Sat 10:59:00 PM 44.0898 173.2332 269° West 399 459 41,000  Level FlightAware Transoceanic
Sat 11:00:00 PM 44.0876 173.0790 269° West 399 459 41,000  Level FlightAware Transoceanic
Sat 11:01:00 PM 44.0852 172.9249 269° West 399 459 41,000  Level FlightAware Transoceanic
Sat 11:02:00 PM 44.0826 172.7708 269° West 399 459 41,000  Level FlightAware Transoceanic
Sat 11:03:00 PM 44.0797 172.6167 268° West 399 459 41,000  Level FlightAware Transoceanic
Sat 11:04:00 PM 44.0767 172.4626 268° West 399 459 41,000  Level FlightAware Transoceanic
Sat 11:04:44 PM 44.0833 172.3167 268° West 401 461 41,000  Level Oakland Oceanic (ODAPS)
Sat 11:05:00 PM 44.0735 172.3085 268° West 399 459 41,000  Level FlightAware Transoceanic
Sat 11:06:00 PM 44.0700 172.1544 268° West 399 459 41,000  Level FlightAware Transoceanic
Sat 11:07:00 PM 44.0663 172.0004 268° West 399 459 41,000  Level FlightAware Transoceanic
Sat 11:08:00 PM 44.0625 171.8463 268° West 399 459 41,000  Level FlightAware Transoceanic
Sat 11:09:00 PM 44.0584 171.6924 268° West 399 459 41,000  Level FlightAware Transoceanic
Sat 11:10:00 PM 44.0576 171.4472 267° West 401 461 41,000  Level FlightAware Transoceanic
Sat 11:11:00 PM 44.0526 171.3023 267° West 401 461 41,000  Level FlightAware Transoceanic
Sat 11:12:00 PM 44.0475 171.1575 267° West 401 461 41,000  Level FlightAware Transoceanic
Sat 11:13:00 PM 44.0422 171.0127 267° West 401 461 41,000  Level FlightAware Transoceanic
Sat 11:14:00 PM 44.0367 170.8680 267° West 401 461 41,000  Level FlightAware Transoceanic
Sat 11:15:00 PM 44.0311 170.7232 267° West 401 461 41,000  Level FlightAware Transoceanic
Sat 11:16:00 PM 44.0252 170.5785 267° West 401 461 41,000  Level FlightAware Transoceanic
Sat 11:17:00 PM 44.0192 170.4339 267° West 401 461 41,000  Level FlightAware Transoceanic
Sat 11:18:00 PM 44.0130 170.2892 267° West 401 461 41,000  Level FlightAware Transoceanic
Sat 11:18:39 PM 44.0000 170.1667 270° West 409 471 41,000  Level Oakland Oceanic (ODAPS)
Sat 11:19:00 PM 44.0066 170.1446 266° West 401 461 41,000  Level FlightAware Transoceanic
Sat 11:19:46 PM 44.0000 170.0000 251° West 411 473 41,000  Level Oakland Oceanic (ODAPS)
Sat 11:20:00 PM 44.0000 170.0000 251° West 401 461 41,000  Level FlightAware Transoceanic
Sat 11:21:00 PM 43.9645 169.8546 251° West 401 461 41,000  Level FlightAware Transoceanic
Sat 11:22:00 PM 43.9288 169.7095 251° West 401 461 41,000  Level FlightAware Transoceanic
Sat 11:23:00 PM 43.8929 169.5645 251° West 401 461 41,000  Level FlightAware Transoceanic
Sat 11:24:00 PM 43.8231 169.2849 251° West 409 471 41,000  Level FlightAware Transoceanic
Sat 11:25:00 PM 43.7872 169.1423 251° West 409 471 41,000  Level FlightAware Transoceanic
Sat 11:26:00 PM 43.7402 168.9573 251° West 411 473 41,000  Level FlightAware Transoceanic
Sat 11:27:00 PM 43.7023 168.8091 250° West 411 473 41,000  Level FlightAware Transoceanic
Sat 11:28:00 PM 43.6642 168.6611 250° West 411 473 41,000  Level FlightAware Transoceanic
Sat 11:29:00 PM 43.6260 168.5133 250° West 411 473 41,000  Level FlightAware Transoceanic
Sat 11:30:00 PM 43.5875 168.3656 250° West 411 473 41,000  Level FlightAware Transoceanic
Sat 11:31:00 PM 43.5489 168.2182 250° West 411 473 41,000  Level FlightAware Transoceanic
Sat 11:32:00 PM 43.5100 168.0709 250° West 411 473 41,000  Level FlightAware Transoceanic
Sat 11:32:27 PM 43.5167 168.0833 250° West 417 480 41,000  Level Oakland Oceanic (ODAPS)
Sat 11:33:00 PM 43.4710 167.9238 250° West 411 473 41,000  Level FlightAware Transoceanic
Sat 11:34:00 PM 43.4318 167.7769 250° West 411 473 41,000  Level FlightAware Transoceanic
Sat 11:35:00 PM 43.3924 167.6302 250° West 411 473 41,000  Level FlightAware Transoceanic
Sat 11:36:00 PM 43.3528 167.4837 250° West 411 473 41,000  Level FlightAware Transoceanic
Sat 11:37:00 PM 43.3130 167.3374 249° West 411 473 41,000  Level FlightAware Transoceanic
Sat 11:38:00 PM 43.2748 167.1866 249° West 417 480 41,000  Level FlightAware Transoceanic
Sat 11:39:00 PM 43.2338 167.0379 249° West 417 480 41,000  Level FlightAware Transoceanic
Sat 11:40:00 PM 43.1926 166.8893 249° West 417 480 41,000  Level FlightAware Transoceanic
Sat 11:41:00 PM 43.1512 166.7410 249° West 417 480 41,000  Level FlightAware Transoceanic
Sat 11:42:00 PM 43.1097 166.5928 249° West 417 480 41,000  Level FlightAware Transoceanic
Sat 11:43:00 PM 43.0679 166.4449 249° West 417 480 41,000  Level FlightAware Transoceanic
Sat 11:44:00 PM 43.0260 166.2971 249° West 417 480 41,000  Level FlightAware Transoceanic
Sat 11:45:00 PM 42.9838 166.1496 249° West 417 480 41,000  Level FlightAware Transoceanic
Sat 11:46:00 PM 42.9415 166.0022 249° West 417 480 41,000  Level FlightAware Transoceanic
Sat 11:46:22 PM 42.9333 166.0167 249° West 417 480 41,000  Level Oakland Oceanic (ODAPS)
Sat 11:47:00 PM 42.8990 165.8551 248° West 417 480 41,000  Level FlightAware Transoceanic
Sat 11:48:00 PM 42.8563 165.7081 248° West 417 480 41,000  Level FlightAware Transoceanic
Sat 11:49:00 PM 42.8134 165.5614 248° West 417 480 41,000  Level FlightAware Transoceanic
Sat 11:50:00 PM 42.7703 165.4149 248° West 417 480 41,000  Level FlightAware Transoceanic
Sat 11:51:00 PM 42.7270 165.2686 248° West 417 480 41,000  Level FlightAware Transoceanic
Sat 11:52:00 PM 42.6767 165.1349 248° West 417 480 41,000  Level FlightAware Transoceanic
Sat 11:53:00 PM 42.6332 164.9886 248° West 417 480 41,000  Level FlightAware Transoceanic
Sat 11:54:00 PM 42.5896 164.8426 248° West 417 480 41,000  Level FlightAware Transoceanic
Sat 11:55:00 PM 42.5458 164.6967 248° West 417 480 41,000  Level FlightAware Transoceanic
Sat 11:56:00 PM 42.5018 164.5511 248° West 417 480 41,000  Level FlightAware Transoceanic
Sat 11:57:00 PM 42.4577 164.4057 248° West 417 480 41,000  Level FlightAware Transoceanic
Sat 11:58:00 PM 42.4133 164.2604 247° West 417 480 41,000  Level FlightAware Transoceanic
Sat 11:59:00 PM 42.3688 164.1154 247° West 417 480 41,000  Level FlightAware Transoceanic
Sun 12:00:00 AM 42.3241 163.9706 247° West 417 480 41,000  Level FlightAware Transoceanic
Sun 12:01:00 AM 42.2791 163.8260 247° West 417 480 41,000  Level FlightAware Transoceanic
Sun 12:02:00 AM 42.2341 163.6816 247° West 417 480 41,000  Level FlightAware Transoceanic
Sun 12:03:00 AM 42.1888 163.5374 247° West 417 480 41,000  Level FlightAware Transoceanic
Sun 12:04:00 AM 42.1434 163.3934 247° West 417 480 41,000  Level FlightAware Transoceanic
Sun 12:05:00 AM 42.0977 163.2496 247° West 417 480 41,000  Level FlightAware Transoceanic
Sun 12:06:00 AM 42.0519 163.1060 247° West 417 480 41,000  Level FlightAware Transoceanic
Sun 12:07:00 AM 42.0060 162.9626 247° West 417 480 41,000  Level FlightAware Transoceanic
Sun 12:08:00 AM 41.9598 162.8195 247° West 417 480 41,000  Level FlightAware Transoceanic
Sun 12:09:00 AM 41.9134 162.6765 246° West 417 480 41,000  Level FlightAware Transoceanic
Sun 12:10:00 AM 41.8669 162.5338 246° West 417 480 41,000  Level FlightAware Transoceanic
Sun 12:11:00 AM 41.8202 162.3912 246° West 417 480 41,000  Level FlightAware Transoceanic
Sun 12:12:00 AM 41.7734 162.2489 246° West 417 480 41,000  Level FlightAware Transoceanic
Sun 12:13:00 AM 41.7263 162.1068 246° West 417 480 41,000  Level FlightAware Transoceanic
Sun 12:14:00 AM 41.6791 161.9649 246° West 417 480 41,000  Level FlightAware Transoceanic
Sun 12:15:00 AM 41.6317 161.8232 246° West 417 480 41,000  Level FlightAware Transoceanic
Sun 12:16:00 AM 41.5841 161.6817 246° West 417 480 41,000  Level FlightAware Transoceanic
Sun 12:17:00 AM 41.5364 161.5404 246° West 417 480 41,000  Level FlightAware Transoceanic
Sun 12:18:00 AM 41.4885 161.3993 246° West 417 480 41,000  Level FlightAware Transoceanic
Sun 12:19:00 AM 41.4404 161.2584 245° Southwest 417 480 41,000  Level FlightAware Transoceanic
Sun 12:20:00 AM 41.3922 161.1178 245° Southwest 417 480 41,000  Level FlightAware Transoceanic
Sun 12:21:00 AM 41.3437 160.9773 245° Southwest 417 480 41,000  Level FlightAware Transoceanic
Sun 12:22:00 AM 41.2951 160.8371 245° Southwest 417 480 41,000  Level FlightAware Transoceanic
Sun 12:23:00 AM 41.2464 160.6970 245° Southwest 417 480 41,000  Level FlightAware Transoceanic
Sun 12:24:00 AM 41.1974 160.5572 245° Southwest 417 480 41,000  Level FlightAware Transoceanic
Sun 12:25:00 AM 41.1483 160.4176 245° Southwest 417 480 41,000  Level FlightAware Transoceanic
Sun 12:26:00 AM 41.0990 160.2782 245° Southwest 417 480 41,000  Level FlightAware Transoceanic
Sun 12:27:00 AM 41.0496 160.1390 245° Southwest 417 480 41,000  Level FlightAware Transoceanic
Sun 12:28:00 AM 41.0000 160.0000 241° Southwest 417 480 41,000  Level FlightAware Transoceanic
Sun 12:29:00 AM 40.9444 159.8695 241° Southwest 417 480 41,000  Level FlightAware Transoceanic
Sun 12:30:00 AM 40.8887 159.7392 240° Southwest 417 480 41,000  Level FlightAware Transoceanic
Sun 12:31:00 AM 40.8328 159.6091 240° Southwest 417 480 41,000  Level FlightAware Transoceanic
Sun 12:32:00 AM 40.7768 159.4792 240° Southwest 417 480 41,000  Level FlightAware Transoceanic
Sun 12:33:00 AM 40.7206 159.3496 240° Southwest 417 480 41,000  Level FlightAware Transoceanic
Sun 12:34:00 AM 40.6643 159.2202 240° Southwest 417 480 41,000  Level FlightAware Transoceanic
Sun 12:35:00 AM 40.6079 159.0909 240° Southwest 417 480 41,000  Level FlightAware Transoceanic
Sun 12:36:00 AM 40.5513 158.9619 240° Southwest 417 480 41,000  Level FlightAware Transoceanic
Sun 12:37:00 AM 40.4945 158.8332 240° Southwest 417 480 41,000  Level FlightAware Transoceanic
Sun 12:38:00 AM 40.4376 158.7046 240° Southwest 417 480 41,000  Level FlightAware Transoceanic
Sun 12:39:00 AM 40.3806 158.5763 240° Southwest 417 480 41,000  Level FlightAware Transoceanic
Sun 12:40:00 AM 40.3235 158.4482 240° Southwest 417 480 41,000  Level FlightAware Transoceanic
Sun 12:41:00 AM 40.2662 158.3203 240° Southwest 417 480 41,000  Level FlightAware Transoceanic
Sun 12:42:00 AM 40.2087 158.1926 239° Southwest 417 480 41,000  Level FlightAware Transoceanic
Sun 12:43:00 AM 40.1511 158.0651 239° Southwest 417 480 41,000  Level FlightAware Transoceanic
Sun 12:44:00 AM 40.0934 157.9379 239° Southwest 417 480 41,000  Level FlightAware Transoceanic
Sun 12:45:00 AM 40.0355 157.8108 239° Southwest 417 480 41,000  Level FlightAware Transoceanic
Sun 12:46:00 AM 39.9775 157.6840 239° Southwest 417 480 41,000  Level FlightAware Transoceanic
Sun 12:47:00 AM 39.9194 157.5574 239° Southwest 417 480 41,000  Level FlightAware Transoceanic
Sun 12:48:00 AM 39.8611 157.4310 239° Southwest 417 480 41,000  Level FlightAware Transoceanic
Sun 12:49:00 AM 39.8027 157.3048 239° Southwest 417 480 41,000  Level FlightAware Transoceanic
Sun 12:50:00 AM 39.7441 157.1789 239° Southwest 417 480 41,000  Level FlightAware Transoceanic
Sun 12:51:00 AM 39.6854 157.0531 239° Southwest 417 480 41,000  Level FlightAware Transoceanic
Sun 12:52:00 AM 39.6266 156.9276 239° Southwest 417 480 41,000  Level FlightAware Transoceanic
Sun 12:53:00 AM 39.5676 156.8023 239° Southwest 417 480 41,000  Level FlightAware Transoceanic
Sun 12:54:00 AM 39.5085 156.6772 238° Southwest 417 480 41,000  Level FlightAware Transoceanic
Sun 12:55:00 AM 39.4493 156.5523 238° Southwest 417 480 41,000  Level FlightAware Transoceanic
Sun 12:56:00 AM 39.3899 156.4276 238° Southwest 417 480 41,000  Level FlightAware Transoceanic
Sun 12:57:00 AM 39.3305 156.3031 238° Southwest 417 480 41,000  Level FlightAware Transoceanic
Sun 12:58:00 AM 39.2708 156.1789 238° Southwest 417 480 41,000  Level FlightAware Transoceanic
Sun 12:59:00 AM 39.2111 156.0548 238° Southwest 417 480 41,000  Level FlightAware Transoceanic
Sun 01:00:00 AM 39.1512 155.9310 238° Southwest 417 480 41,000  Level FlightAware Transoceanic
Sun 01:01:00 AM 39.0912 155.8073 238° Southwest 417 480 41,000  Level FlightAware Transoceanic
Sun 01:02:00 AM 39.0310 155.6839 238° Southwest 417 480 41,000  Level FlightAware Transoceanic
Sun 01:03:00 AM 38.9707 155.5607 238° Southwest 417 480 41,000  Level FlightAware Transoceanic
Sun 01:04:00 AM 38.9103 155.4377 238° Southwest 417 480 41,000  Level FlightAware Transoceanic
Sun 01:05:00 AM 38.8498 155.3150 238° Southwest 417 480 41,000  Level FlightAware Transoceanic
Sun 01:06:00 AM 38.7891 155.1924 238° Southwest 417 480 41,000  Level FlightAware Transoceanic
Sun 01:07:00 AM 38.7283 155.0700 237° Southwest 417 480 41,000  Level FlightAware Transoceanic
Sun 01:08:00 AM 38.6674 154.9479 237° Southwest 417 480 41,000  Level FlightAware Transoceanic
Sun 01:09:00 AM 38.6063 154.8259 237° Southwest 417 480 41,000  Level FlightAware Transoceanic
Sun 01:10:00 AM 38.5452 154.7042 237° Southwest 417 480 41,000  Level FlightAware Transoceanic
Sun 01:11:00 AM 38.4839 154.5826 237° Southwest 417 480 41,000  Level FlightAware Transoceanic
Sun 01:12:00 AM 38.4224 154.4613 237° Southwest 417 480 41,000  Level FlightAware Transoceanic
Sun 01:13:00 AM 38.3609 154.3402 237° Southwest 417 480 41,000  Level FlightAware Transoceanic
Sun 01:14:00 AM 38.2992 154.2193 237° Southwest 417 480 41,000  Level FlightAware Transoceanic
Sun 01:15:00 AM 38.2374 154.0986 237° Southwest 417 480 41,000  Level FlightAware Transoceanic
Sun 01:16:00 AM 38.1755 153.9780 237° Southwest 417 480 41,000  Level FlightAware Transoceanic
Sun 01:17:00 AM 38.1134 153.8578 237° Southwest 417 480 41,000  Level FlightAware Transoceanic
Sun 01:18:00 AM 38.0513 153.7377 237° Southwest 417 480 41,000  Level FlightAware Transoceanic
Sun 01:19:00 AM 37.9890 153.6178 237° Southwest 417 480 41,000  Level FlightAware Transoceanic
Sun 01:20:00 AM 37.9266 153.4981 236° Southwest 417 480 41,000  Level FlightAware Transoceanic
Sun 01:21:00 AM 37.8640 153.3786 236° Southwest 417 480 41,000  Level FlightAware Transoceanic
Sun 01:22:00 AM 37.8014 153.2593 236° Southwest 417 480 41,000  Level FlightAware Transoceanic
Sun 01:23:00 AM 37.7386 153.1402 236° Southwest 417 480 41,000  Level FlightAware Transoceanic
Sun 01:24:00 AM 37.6757 153.0213 236° Southwest 417 480 41,000  Level FlightAware Transoceanic
Sun 01:25:00 AM 37.6127 152.9027 236° Southwest 417 480 41,000  Level FlightAware Transoceanic
Sun 01:26:00 AM 37.5495 152.7842 236° Southwest 417 480 41,000  Level FlightAware Transoceanic
Sun 01:27:00 AM 37.4863 152.6659 236° Southwest 417 480 41,000  Level FlightAware Transoceanic
Sun 01:28:00 AM 37.4229 152.5479 236° Southwest 417 480 41,000  Level FlightAware Transoceanic
Sun 01:29:00 AM 37.3595 152.4300 236° Southwest 417 480 41,000  Level FlightAware Transoceanic
Sun 01:30:00 AM 37.2958 152.3123 236° Southwest 417 480 41,000  Level FlightAware Transoceanic
Sun 01:31:00 AM 37.2321 152.1948 236° Southwest 417 480 41,000  Level FlightAware Transoceanic
Sun 01:32:00 AM 37.1683 152.0775 236° Southwest 417 480 41,000  Level FlightAware Transoceanic
Sun 01:33:00 AM 37.1044 151.9605 236° Southwest 417 480 41,000  Level FlightAware Transoceanic
Sun 01:34:00 AM 37.0403 151.8436 235° Southwest 417 480 41,000  Level FlightAware Transoceanic
Sun 01:35:00 AM 36.9761 151.7269 235° Southwest 417 480 41,000  Level FlightAware Transoceanic
Sun 01:36:00 AM 36.9118 151.6104 235° Southwest 417 480 41,000  Level FlightAware Transoceanic
Sun 01:37:00 AM 36.8474 151.4941 235° Southwest 417 480 41,000  Level FlightAware Transoceanic
Sun 01:38:00 AM 36.7829 151.3780 235° Southwest 417 480 41,000  Level FlightAware Transoceanic
Sun 01:39:00 AM 36.7183 151.2621 235° Southwest 417 480 41,000  Level FlightAware Transoceanic
Sun 01:40:00 AM 36.6535 151.1464 235° Southwest 417 480 41,000  Level FlightAware Transoceanic
Sun 01:41:00 AM 36.5887 151.0309 235° Southwest 417 480 41,000  Level FlightAware Transoceanic
Sun 01:42:00 AM 36.5237 150.9156 235° Southwest 417 480 41,000  Level FlightAware Transoceanic
Sun 01:43:00 AM 36.4586 150.8005 235° Southwest 417 480 41,000  Level FlightAware Transoceanic
Sun 01:44:00 AM 36.3934 150.6855 235° Southwest 417 480 41,000  Level FlightAware Transoceanic
Sun 01:45:00 AM 36.3281 150.5708 235° Southwest 417 480 41,000  Level FlightAware Transoceanic
Sun 01:46:00 AM 36.2627 150.4563 235° Southwest 417 480 41,000  Level FlightAware Transoceanic
Sun 01:47:00 AM 36.1972 150.3419 235° Southwest 417 480 41,000  Level FlightAware Transoceanic
Sun 01:48:00 AM 36.1316 150.2278 235° Southwest 417 480 41,000  Level FlightAware Transoceanic
Sun 01:49:00 AM 36.0658 150.1138 234° Southwest 417 480 41,000  Level FlightAware Transoceanic
Sun 01:50:00 AM 35.9968 149.9944 234° Southwest  Level FlightAware Approximate
Sun 01:51:00 AM 35.9980 149.9865 259° West  Level FlightAware Approximate
Sun 01:52:00 AM 35.9759 149.8424 259° West  Level FlightAware Approximate
Sun 01:53:00 AM 35.9537 149.6983 259° West  Level FlightAware Approximate
Sun 01:54:00 AM 35.9313 149.5544 259° West  Level FlightAware Approximate
Sun 01:55:00 AM 35.9088 149.4105 259° West  Level FlightAware Approximate
Sun 01:56:00 AM 35.8861 149.2667 259° West  Level FlightAware Approximate
Sun 01:57:00 AM 35.8632 149.1230 259° West  Level FlightAware Approximate
Sun 01:58:00 AM 35.8401 148.9793 259° West  Level FlightAware Approximate
Sun 01:59:00 AM 35.8168 148.8358 259° West  Level FlightAware Approximate
Sun 02:00:00 AM 35.7934 148.6923 259° West  Level FlightAware Approximate
Sun 02:01:00 AM 35.7699 148.5489 259° West  Level FlightAware Approximate
Sun 02:02:00 AM 35.7461 148.4056 258° West  Level FlightAware Approximate
Sun 02:03:00 AM 35.7222 148.2624 258° West  Level FlightAware Approximate
Sun 02:04:00 AM 35.6981 148.1193 258° West  Level FlightAware Approximate
Sun 02:05:00 AM 35.6738 147.9763 258° West  Level FlightAware Approximate
Sun 02:06:00 AM 35.6494 147.8333 258° West  Level FlightAware Approximate
Sun 02:07:00 AM 35.6248 147.6904 258° West  Level FlightAware Approximate
Sun 02:08:00 AM 35.6001 147.5477 258° West  Level FlightAware Approximate
Sun 02:09:00 AM 35.5751 147.4050 258° West  Level FlightAware Approximate
Sun 02:10:00 AM 35.5500 147.2622 258° West  Level FlightAware Approximate
Sun 02:11:00 AM 35.5247 147.1195 258° West  Level FlightAware Approximate
Sun 02:12:00 AM 35.4992 146.9769 258° West  Level FlightAware Approximate
Sun 02:13:00 AM 35.4736 146.8344 258° West  Level FlightAware Approximate
Sun 02:14:00 AM 35.4478 146.6919 258° West  Level FlightAware Approximate
Sun 02:15:00 AM 35.4218 146.5496 257° West  Level FlightAware Approximate
Sun 02:16:00 AM 35.3957 146.4073 257° West  Level FlightAware Approximate
Sun 02:17:00 AM 35.3694 146.2652 257° West  Level FlightAware Approximate
Sun 02:18:00 AM 35.3429 146.1231 257° West  Level FlightAware Approximate
Sun 02:19:00 AM 35.3166 145.9812 268° West  Level FlightAware Approximate
Sun 02:20:00 AM 35.3131 145.8356 268° West  Level FlightAware Approximate
Sun 02:21:00 AM 35.3094 145.6900 268° West  Level FlightAware Approximate
Sun 02:22:00 AM 35.3055 145.5444 268° West  Level FlightAware Approximate
Sun 02:23:00 AM 35.3014 145.3989 268° West  Level FlightAware Approximate
Sun 02:24:00 AM 35.2964 145.2534 267° West  Level FlightAware Approximate
Sun 02:25:00 AM 35.2909 145.1080 267° West  Level FlightAware Approximate
Sun 02:26:00 AM 35.2852 144.9626 267° West  Level FlightAware Approximate
Sun 02:27:00 AM 35.2793 144.8171 267° West  Level FlightAware Approximate
Sun 02:28:00 AM 35.2733 144.6718 267° West  Level FlightAware Approximate
Sun 02:29:00 AM 35.2671 144.5264 267° West  Level FlightAware Approximate
Sun 02:30:00 AM 35.2607 144.3810 267° West  Level FlightAware Approximate
Sun 02:31:00 AM 35.2541 144.2357 267° West  Level FlightAware Approximate
Sun 02:32:00 AM 35.2473 144.0904 267° West  Level FlightAware Approximate
Sun 02:32:15 AM 35.4500 143.6550 267° West 407 468 41,000  Level FlightAware ADS-B
Sun 02:32:53 AM 35.4580 143.5690 277° West 386 444 41,000  Level FlightAware ADS-B
Sun 02:33:00 AM 35.2404 143.9452 267° West  Level FlightAware Approximate
Sun 02:33:28 AM 35.4660 143.4870 277° West 404 465 41,000  Level FlightAware ADS-B
Sun 02:34:06 AM 35.4730 143.4060 276° West 408 470 41,000  Level FlightAware ADS-B
Sun 02:34:41 AM 35.4810 143.3180 276° West 406 467 41,000  Level FlightAware ADS-B
Sun 02:35:18 AM 35.4880 143.2390 276° West 405 466 41,000 -329 Level FlightAware ADS-B
Sun 02:35:54 AM 35.4950 143.1550 276° West 404 465 40,600 -1,343 Descending FlightAware ADS-B
Sun 02:36:25 AM 35.5010 143.0850 276° West 404 465 39,500 -2,286 Descending FlightAware ADS-B
Sun 02:36:57 AM 35.5070 143.0100 276° West 405 466 38,200 -2,514 Descending FlightAware ADS-B
Sun 02:37:39 AM 35.5140 142.9170 275° West 419 482 36,400 -2,819 Descending FlightAware ADS-B
Sun 02:38:20 AM 35.5200 142.8220 274° West 443 510 34,300 -3,529 Descending FlightAware ADS-B
Sun 02:38:47 AM 35.5250 142.7400 274° West 474 545 32,400 -3,818 Descending FlightAware ADS-B
Sun 02:39:26 AM 35.5320 142.6350 275° West 494 568 30,100 -3,217 Descending FlightAware ADS-B
Sun 02:39:56 AM 35.5370 142.5480 274° West 493 567 28,700 -2,667 Descending FlightAware ADS-B
Sun 02:40:29 AM 35.5430 142.4640 275° West 486 559 27,300 -2,667 Descending FlightAware ADS-B
Sun 02:41:08 AM 35.5500 142.3490 274° West 479 551 25,500 -2,649 Descending FlightAware ADS-B
Sun 02:41:46 AM 35.5560 142.2530 274° West 459 528 23,900 -2,609 Descending FlightAware ADS-B
Sun 02:42:17 AM 35.5630 142.1760 276° West 453 521 22,500 -1,737 Descending FlightAware ADS-B
Sun 02:43:02 AM 35.5860 142.0610 284° West 439 505 21,700 -935 Descending FlightAware ADS-B
Sun 02:43:34 AM 35.6040 141.9840 286° West 428 493 21,300 -952 Descending FlightAware ADS-B
Sun 02:44:05 AM 35.6200 141.9100 285° West 426 490 20,700 -1,183 Descending FlightAware ADS-B
Sun 02:44:45 AM 35.6410 141.8160 285° West 426 490 19,900 -1,151 Descending FlightAware ADS-B
Sun 02:45:18 AM 35.6580 141.7420 286° West 420 483 19,300 -943 Descending FlightAware ADS-B
Sun 02:45:55 AM 35.6770 141.6570 285° West 409 471 18,800 -1,397 Descending FlightAware ADS-B
Sun 02:46:31 AM 35.6930 141.5820 285° West 399 459 17,600 -2,182 Descending FlightAware ADS-B
Sun 02:47:01 AM 35.7090 141.5120 286° West 393 452 16,400 -2,348 Descending FlightAware ADS-B
Sun 02:47:40 AM 35.7270 141.4310 285° West 386 444 14,900 -2,219 Descending FlightAware ADS-B
Sun 02:48:14 AM 35.7420 141.3590 284° West 383 441 13,700 -1,917 Descending FlightAware ADS-B
Sun 02:48:52 AM 35.7560 141.2840 283° West 368 423 12,600 -1,636 Descending FlightAware ADS-B
Sun 02:49:09 AM 35.7570 141.2440 272° West 354 407 12,200 -1,700 Descending FlightAware ADS-B
Sun 02:49:52 AM 35.7500 141.1600 264° West 319 367 10,900 -1,840 Descending FlightAware ADS-B
Sun 02:50:24 AM 35.7470 141.1080 266° West 292 336 9,900 -1,875 Descending FlightAware ADS-B
Sun 02:50:40 AM 35.7440 141.0800 262° West 282 325 9,400 -1,385 Descending FlightAware ADS-B
Sun 02:51:03 AM 35.7410 141.0440 264° West 280 322 9,000 -600 Descending FlightAware ADS-B
Sun 02:51:20 AM 35.7390 141.0200 264° West 272 313 9,000 -400 Level FlightAware ADS-B
Sun 02:51:48 AM 35.7300 140.9810 254° West 257 296 8,700 -923 Descending FlightAware ADS-B
Sun 02:51:59 AM 35.7200 140.9660 231° Southwest 255 293 8,400 -1,111 Descending FlightAware ADS-B
Sun 02:52:15 AM 35.7060 140.9480 226° Southwest 249 287 8,200 -1,171 Descending FlightAware ADS-B
Sun 02:52:40 AM 35.6870 140.9220 228° Southwest 245 282 7,600 -1,610 Descending FlightAware ADS-B
Sun 02:52:56 AM 35.6730 140.9040 226° Southwest 243 280 7,100 -1,297 Descending FlightAware ADS-B
Sun 02:53:17 AM 35.6570 140.8830 227° Southwest 242 278 6,800 -1,143 Descending FlightAware ADS-B
Sun 02:53:38 AM 35.6410 140.8630 225° Southwest 240 276 6,300 -1,543 Descending FlightAware ADS-B
Sun 02:53:52 AM 35.6290 140.8460 229° Southwest 240 276 5,900 -1,161 Descending FlightAware ADS-B
Sun 02:54:09 AM 35.6170 140.8300 227° Southwest 239 275 5,700 -973 Descending FlightAware ADS-B
Sun 02:54:29 AM 35.6010 140.8100 225° Southwest 237 273 5,300 -1,000 Descending FlightAware ADS-B
Sun 02:54:57 AM 35.5800 140.7830 226° Southwest 243 280 4,900 -977 Descending FlightAware ADS-B
Sun 02:55:12 AM 35.5690 140.7680 228° Southwest 240 276 4,600 -1,167 Descending FlightAware ADS-B
Sun 02:55:33 AM 35.5520 140.7460 226° Southwest 237 273 4,200 -968 Descending FlightAware ADS-B
Sun 02:55:43 AM 35.5440 140.7370 222° Southwest 233 268 4,100 -750 Descending FlightAware ADS-B
Sun 02:55:49 AM 35.5390 140.7320 219° Southwest 228 262 4,000 -200 Descending FlightAware ADS-B
Sun 02:56:13 AM 35.5160 140.7210 201° Southwest 206 237 4,000  Level FlightAware ADS-B
Sun 02:56:34 AM 35.4960 140.7110 202° Southwest 198 228 4,000  Level FlightAware ADS-B
Sun 02:56:39 AM 35.4950 140.7100 219° Southwest 199 229 4,000  Level FlightAware ADS-B
Sun 02:56:49 AM 35.4880 140.7010 226° Southwest 203 234 4,000  Level FlightAware ADS-B
Sun 02:57:00 AM 35.4820 140.6880 240° Southwest 213 245 4,000  Level FlightAware ADS-B
Sun 02:57:06 AM 35.4810 140.6810 260° West 212 244 4,000  Level FlightAware ADS-B
Sun 02:57:17 AM 35.4820 140.6670 275° West 216 249 4,000  Level FlightAware ADS-B
Sun 02:57:33 AM 35.4850 140.6480 281° West 217 250 4,000  Level FlightAware ADS-B
Sun 02:57:56 AM 35.4890 140.6220 281° West 215 247 4,000  Level FlightAware ADS-B
Sun 02:58:24 AM 35.4940 140.5880 280° West 214 246 4,000  Level FlightAware ADS-B
Sun 02:58:33 AM 35.4980 140.5750 291° West 220 253 4,000  Level FlightAware ADS-B
Sun 02:58:49 AM 35.5080 140.5610 311° West 218 251 4,000  Level FlightAware ADS-B
Sun 02:59:05 AM 35.5200 140.5510 326° Northwest 222 255 4,000  Level FlightAware ADS-B
Sun 02:59:27 AM 35.5410 140.5360 330° Northwest 221 254 4,000  Level FlightAware ADS-B
Sun 02:59:49 AM 35.5610 140.5220 330° Northwest 208 239 4,000 -255 Level FlightAware ADS-B
Sun 03:00:14 AM 35.5840 140.5060 331° Northwest 213 245 3,800 -811 Descending FlightAware ADS-B
Sun 03:00:26 AM 35.5940 140.4980 327° Northwest 209 241 3,500 -1,313 Descending FlightAware ADS-B
Sun 03:00:46 AM 35.6110 140.4860 330° Northwest 201 231 3,100 -1,143 Descending FlightAware ADS-B
Sun 03:01:08 AM 35.6280 140.4740 330° Northwest 190 219 2,700 -955 Descending FlightAware ADS-B
Sun 03:01:30 AM 35.6440 140.4620 329° Northwest 173 199 2,400 -857 Descending FlightAware ADS-B
Sun 03:01:50 AM 35.6560 140.4540 332° Northwest 159 183 2,100 -789 Descending FlightAware ADS-B
Sun 03:02:08 AM 35.6680 140.4450 329° Northwest 148 170 1,900 -833 Descending FlightAware ADS-B
Sun 03:02:26 AM 35.6780 140.4380 330° Northwest 144 166 1,600 -900 Descending FlightAware ADS-B
Sun 03:02:48 AM 35.6900 140.4290 329° Northwest 134 154 1,300 -714 Descending FlightAware ADS-B
Sun 03:03:08 AM 35.7000 140.4220 330° Northwest 127 146 1,100 -632 Descending FlightAware ADS-B
Sun 03:03:26 AM 35.7100 140.4150 330° Northwest 123 142 900 -600 Descending FlightAware ADS-B
Sun 03:03:48 AM 35.7210 140.4070 329° Northwest 125 144 700 -632 Descending FlightAware ADS-B
Sun 03:04:04 AM 35.7290 140.4010 329° Northwest 127 146 500 -667 Descending FlightAware ADS-B
Sun 03:04:24 AM 35.7390 140.3940 330° Northwest 132 152 300 -353 Descending FlightAware ADS-B
Sun 03:04:55 AM 35.7530 140.3840 330° Northwest 133 153 200 -194 Descending FlightAware ADS-B

Login

Don't have an account? Register now (free) for customized features, flight alerts, and more!